Observation data for Palo Duro Reservoir 1NW on 05/25/2019      Previous  Date  Next       Current Mesonet Observations  Soil Data  Daily Summary Page  Observations in Plain Language
KPD4 250500Z 18010KT 17/16 A2993 RMK A01 T01720163  RH  094%=      5-min Rain = 0
KPD4 250501Z 19007KT 17/16 A2992 RMK A01 T01720163  RH  094%=      5-min Rain = 0
KPD4 250502Z 17008KT 17/16 A2992 RMK A01 T01710162  RH  094%=      5-min Rain = 0
KPD4 250503Z 15009KT 17/16 A2993 RMK A01 T01710162  RH  094%=      5-min Rain = 0
KPD4 250504Z 16009KT 17/16 A2993 RMK A01 T01720163  RH  094%=      5-min Rain = 0
KPD4 250505Z 17007KT 17/16 A2993 RMK A01 T01710162  RH  094%=      5-min Rain = 0
KPD4 250506Z 17008KT 17/16 A2993 RMK A01 T01710162  RH  094%=      5-min Rain = 0
KPD4 250507Z 17008KT 17/16 A2993 RMK A01 T01710162  RH  094%=      5-min Rain = 0
KPD4 250508Z 16010KT 17/16 A2993 RMK A01 T01700161  RH  095%=      5-min Rain = 0
KPD4 250509Z 16013KT 17/16 A2994 RMK A01 T01700162  RH  095%=      5-min Rain = 0
KPD4 250510Z 17012KT 17/16 A2994 RMK A01 T01700162  RH  095%=      5-min Rain = 0
KPD4 250511Z 18010KT 17/16 A2993 RMK A01 T01700162  RH  095%=      5-min Rain = 0
KPD4 250512Z 19010KT 17/16 A2993 RMK A01 T01700161  RH  094%=      5-min Rain = 0
KPD4 250513Z 19010KT 17/16 A2992 RMK A01 T01710161  RH  094%=      5-min Rain = 0
KPD4 250514Z 18010KT 17/16 A2993 RMK A01 T01700160  RH  094%=      5-min Rain = 0
KPD4 250515Z 17011KT 17/16 A2993 RMK A01 T01710161  RH  094%=      5-min Rain = 0
KPD4 250516Z 17012KT 17/16 A2993 RMK A01 T01700160  RH  094%=      5-min Rain = 0
KPD4 250517Z 16011KT 17/16 A2994 RMK A01 T01700160  RH  094%=      5-min Rain = 0
KPD4 250518Z 17009KT 17/16 A2993 RMK A01 T01690160  RH  094%=      5-min Rain = 0
KPD4 250519Z 17009KT 17/16 A2993 RMK A01 T01690160  RH  094%=      5-min Rain = 0
KPD4 250520Z 17010KT 17/16 A2994 RMK A01 T01690160  RH  094%=      5-min Rain = 0
KPD4 250521Z 17011KT 17/16 A2994 RMK A01 T01680159  RH  094%=      5-min Rain = 0
KPD4 250522Z 17010KT 17/16 A2994 RMK A01 T01680159  RH  095%=      5-min Rain = 0
KPD4 250523Z 17010KT 17/16 A2994 RMK A01 T01680159  RH  095%=      5-min Rain = 0
KPD4 250524Z 17011KT 17/16 A2994 RMK A01 T01670159  RH  095%=      5-min Rain = 0
KPD4 250525Z 17014KT 17/16 A2994 RMK A01 T01670159  RH  095%=      5-min Rain = 0
KPD4 250526Z 17012KT 17/16 A2995 RMK A01 T01670159  RH  095%=      5-min Rain = 0
KPD4 250527Z 18008KT 17/16 A2994 RMK A01 T01670159  RH  095%=      5-min Rain = 0
KPD4 250528Z 19008KT 17/16 A2994 RMK A01 T01660158  RH  095%=      5-min Rain = 0
KPD4 250529Z 20008KT 17/16 A2993 RMK A01 T01660159  RH  095%=      5-min Rain = 0
KPD4 250530Z 21011KT 17/16 A2993 RMK A01 T01660159  RH  095%=      5-min Rain = 0
KPD4 250531Z 20013KT 17/16 A2993 RMK A01 T01670159  RH  095%=      5-min Rain = 0
KPD4 250532Z 19013KT 17/16 A2994 RMK A01 T01670158  RH  095%=      5-min Rain = 0
KPD4 250533Z 19011KT 17/16 A2994 RMK A01 T01670158  RH  094%=      5-min Rain = 0
KPD4 250534Z 19011KT 17/16 A2994 RMK A01 T01680158  RH  094%=      5-min Rain = 0
KPD4 250535Z 18012KT 17/16 A2994 RMK A01 T01670157  RH  094%=      5-min Rain = 0
KPD4 250536Z 18010KT 17/16 A2995 RMK A01 T01670157  RH  094%=      5-min Rain = 0
KPD4 250537Z 18009KT 17/16 A2994 RMK A01 T01670157  RH  094%=      5-min Rain = 0
KPD4 250538Z 19010KT 17/16 A2994 RMK A01 T01660156  RH  094%=      5-min Rain = 0
KPD4 250539Z 18011KT 17/16 A2994 RMK A01 T01660156  RH  094%=      5-min Rain = 0
KPD4 250540Z 18013KT 17/15 A2994 RMK A01 T01650154  RH  093%=      5-min Rain = 0
KPD4 250541Z 20010KT 17/15 A2994 RMK A01 T01650153  RH  093%=      5-min Rain = 0
KPD4 250542Z 20010KT 17/15 A2994 RMK A01 T01650153  RH  093%=      5-min Rain = 0
KPD4 250543Z 20011KT 17/15 A2994 RMK A01 T01650152  RH  092%=      5-min Rain = 0
KPD4 250544Z 20011KT 17/15 A2994 RMK A01 T01650152  RH  092%=      5-min Rain = 0
KPD4 250545Z 19010KT 16/15 A2994 RMK A01 T01640151  RH  092%=      5-min Rain = 0
KPD4 250546Z 18012KT 16/15 A2994 RMK A01 T01640151  RH  092%=      5-min Rain = 0
KPD4 250547Z 18011KT 16/15 A2994 RMK A01 T01640151  RH  092%=      5-min Rain = 0
KPD4 250548Z 18010KT 16/15 A2994 RMK A01 T01640151  RH  092%=      5-min Rain = 0
KPD4 250549Z 17010KT 16/15 A2994 RMK A01 T01630150  RH  092%=      5-min Rain = 0
KPD4 250550Z 17011KT 16/15 A2994 RMK A01 T01620150  RH  092%=      5-min Rain = 0
KPD4 250551Z 19009KT 16/15 A2994 RMK A01 T01620150  RH  092%=      5-min Rain = 0
KPD4 250552Z 19009KT 16/15 A2994 RMK A01 T01620150  RH  092%=      5-min Rain = 0
KPD4 250553Z 18010KT 16/15 A2993 RMK A01 T01620150  RH  092%=      5-min Rain = 0
KPD4 250554Z 18007KT 16/15 A2993 RMK A01 T01620150  RH  092%=      5-min Rain = 0
KPD4 250555Z 18008KT 16/15 A2994 RMK A01 T01610149  RH  093%=      5-min Rain = 0
KPD4 250556Z 18009KT 16/15 A2994 RMK A01 T01600148  RH  093%=      5-min Rain = 0
KPD4 250557Z 19008KT 16/15 A2993 RMK A01 T01600149  RH  093%=      5-min Rain = 0
KPD4 250558Z 18009KT 16/15 A2994 RMK A01 T01600149  RH  094%=      5-min Rain = 0
KPD4 250559Z 18009KT 16/15 A2994 RMK A01 T01590149  RH  094%=      5-min Rain = 0
KPD4 250600Z 19009KT 16/15 A2994 RMK A01 T01590149  RH  094%=      5-min Rain = 0
KPD4 250601Z 20008KT 16/15 A2993 RMK A01 T01590149  RH  094%=      5-min Rain = 0
KPD4 250602Z 19008KT 16/15 A2993 RMK A01 T01590149  RH  094%=      5-min Rain = 0
KPD4 250603Z 18011KT 16/15 A2994 RMK A01 T01590149  RH  094%=      5-min Rain = 0
KPD4 250604Z 18012KT 16/15 A2994 RMK A01 T01590149  RH  094%=      5-min Rain = 0
KPD4 250605Z 18009KT 16/15 A2994 RMK A01 T01590149  RH  094%=      5-min Rain = 0
KPD4 250606Z 19009KT 16/15 A2994 RMK A01 T01590149  RH  094%=      5-min Rain = 0
KPD4 250607Z 19008KT 16/15 A2993 RMK A01 T01590150  RH  094%=      5-min Rain = 0
KPD4 250608Z 19008KT 16/15 A2993 RMK A01 T01590150  RH  094%=      5-min Rain = 0
KPD4 250609Z 18011KT 16/15 A2994 RMK A01 T01590150  RH  094%=      5-min Rain = 0
KPD4 250610Z 18009KT 16/15 A2994 RMK A01 T01590150  RH  094%=      5-min Rain = 0
KPD4 250611Z 18009KT 16/15 A2993 RMK A01 T01590150  RH  094%=      5-min Rain = 0
KPD4 250612Z 19009KT 16/15 A2993 RMK A01 T01590150  RH  094%=      5-min Rain = 0
KPD4 250613Z 19011KT 16/15 A2993 RMK A01 T01590150  RH  095%=      5-min Rain = 0
KPD4 250614Z 19009KT 16/15 A2993 RMK A01 T01590150  RH  094%=      5-min Rain = 0
KPD4 250615Z 19010KT 16/15 A2993 RMK A01 T01590150  RH  094%=      5-min Rain = 0
KPD4 250616Z 19009KT 16/15 A2993 RMK A01 T01590150  RH  094%=      5-min Rain = 0
KPD4 250617Z 18010KT 16/15 A2993 RMK A01 T01590150  RH  094%=      5-min Rain = 0
KPD4 250618Z 18010KT 16/15 A2993 RMK A01 T01590150  RH  094%=      5-min Rain = 0
KPD4 250619Z 18010KT 16/15 A2993 RMK A01 T01590150  RH  094%=      5-min Rain = 0
KPD4 250620Z 18010KT 16/15 A2993 RMK A01 T01580150  RH  094%=      5-min Rain = 0
KPD4 250621Z 18009KT 16/15 A2993 RMK A01 T01580150  RH  095%=      5-min Rain = 0
KPD4 250622Z 18008KT 16/15 A2993 RMK A01 T01580150  RH  095%=      5-min Rain = 0
KPD4 250623Z 18009KT 16/15 A2993 RMK A01 T01570149  RH  095%=      5-min Rain = 0
KPD4 250624Z 18009KT 16/15 A2993 RMK A01 T01570150  RH  095%=      5-min Rain = 0
KPD4 250625Z 19011KT 16/15 A2993 RMK A01 T01570150  RH  095%=      5-min Rain = 0
KPD4 250626Z 19011KT 16/15 A2993 RMK A01 T01580150  RH  095%=      5-min Rain = 0
KPD4 250627Z 19010KT 16/15 A2993 RMK A01 T01580150  RH  095%=      5-min Rain = 0
KPD4 250628Z 19010KT 16/15 A2993 RMK A01 T01580150  RH  095%=      5-min Rain = 0
KPD4 250629Z 19012KT 16/15 A2993 RMK A01 T01580150  RH  095%=      5-min Rain = 0
KPD4 250630Z 18012KT 16/15 A2993 RMK A01 T01580150  RH  095%=      5-min Rain = 0
KPD4 250631Z 18011KT 16/15 A2993 RMK A01 T01580150  RH  095%=      5-min Rain = 0
KPD4 250632Z 18012KT 16/15 A2994 RMK A01 T01580150  RH  095%=      5-min Rain = 0
KPD4 250633Z 18011KT 16/15 A2994 RMK A01 T01580150  RH  095%=      5-min Rain = 0
KPD4 250634Z 19012KT 16/15 A2993 RMK A01 T01580150  RH  095%=      5-min Rain = 0
KPD4 250635Z 19011KT 16/15 A2993 RMK A01 T01580150  RH  095%=      5-min Rain = 0
KPD4 250636Z 19012KT 16/15 A2994 RMK A01 T01580150  RH  095%=      5-min Rain = 0
KPD4 250637Z 19012KT 16/15 A2993 RMK A01 T01580150  RH  095%=      5-min Rain = 0
KPD4 250638Z 19013KT 16/15 A2994 RMK A01 T01580150  RH  095%=      5-min Rain = 0
KPD4 250639Z 18013KT 16/15 A2994 RMK A01 T01580150  RH  095%=      5-min Rain = 0
KPD4 250640Z 18012KT 16/15 A2994 RMK A01 T01580150  RH  095%=      5-min Rain = 0
KPD4 250641Z 18013KT 16/15 A2994 RMK A01 T01580150  RH  095%=      5-min Rain = 0
KPD4 250642Z 18012KT 16/15 A2994 RMK A01 T01580150  RH  095%=      5-min Rain = 0
KPD4 250643Z 18013KT 16/15 A2993 RMK A01 T01580150  RH  095%=      5-min Rain = 0
KPD4 250644Z 18011KT 16/15 A2994 RMK A01 T01580150  RH  095%=      5-min Rain = 0
KPD4 250645Z 18012KT 16/15 A2994 RMK A01 T01570150  RH  095%=      5-min Rain = 0
KPD4 250646Z 18013KT 16/15 A2993 RMK A01 T01570149  RH  095%=      5-min Rain = 0
KPD4 250647Z 18011KT 16/15 A2993 RMK A01 T01570149  RH  095%=      5-min Rain = 0
KPD4 250648Z 18012KT 16/15 A2994 RMK A01 T01570149  RH  095%=      5-min Rain = 0
KPD4 250649Z 18013KT 16/15 A2994 RMK A01 T01570150  RH  095%=      5-min Rain = 0
KPD4 250650Z 18012KT 16/15 A2994 RMK A01 T01570150  RH  095%=      5-min Rain = 0
KPD4 250651Z 18012KT 16/15 A2994 RMK A01 T01570150  RH  095%=      5-min Rain = 0
KPD4 250652Z 18013KT 16/15 A2994 RMK A01 T01570150  RH  095%=      5-min Rain = 0
KPD4 250653Z 18012KT 16/15 A2994 RMK A01 T01570150  RH  095%=      5-min Rain = 0
KPD4 250654Z 19011KT 16/15 A2994 RMK A01 T01570150  RH  095%=      5-min Rain = 0
KPD4 250655Z 19012KT 16/15 A2993 RMK A01 T01560149  RH  095%=      5-min Rain = 0
KPD4 250656Z 19012KT 16/15 A2993 RMK A01 T01560149  RH  096%=      5-min Rain = 0
KPD4 250657Z 19012KT 16/15 A2993 RMK A01 T01570150  RH  096%=      5-min Rain = 0
KPD4 250658Z 20012KT 16/15 A2993 RMK A01 T01560149  RH  095%=      5-min Rain = 0
KPD4 250659Z 20012KT 16/15 A2993 RMK A01 T01560149  RH  095%=      5-min Rain = 0
KPD4 250700Z 19011KT 16/15 A2993 RMK A01 T01570149  RH  095%=      5-min Rain = 0
KPD4 250701Z 19012KT 16/15 A2993 RMK A01 T01560149  RH  095%=      5-min Rain = 0
KPD4 250702Z 19013KT 16/15 A2993 RMK A01 T01570149  RH  095%=      5-min Rain = 0
KPD4 250703Z 19013KT 16/15 A2993 RMK A01 T01570149  RH  095%=      5-min Rain = 0
KPD4 250704Z 19014KT 16/15 A2993 RMK A01 T01570149  RH  095%=      5-min Rain = 0
KPD4 250705Z 19013KT 16/15 A2993 RMK A01 T01580150  RH  095%=      5-min Rain = 0
KPD4 250706Z 19014KT 16/15 A2994 RMK A01 T01580150  RH  095%=      5-min Rain = 0
KPD4 250707Z 19014KT 16/15 A2993 RMK A01 T01580150  RH  095%=      5-min Rain = 0
KPD4 250708Z 19013KT 16/15 A2994 RMK A01 T01580150  RH  095%=      5-min Rain = 0
KPD4 250709Z 20012KT 16/15 A2994 RMK A01 T01580149  RH  095%=      5-min Rain = 0
KPD4 250710Z 19013KT 16/15 A2994 RMK A01 T01580149  RH  095%=      5-min Rain = 0
KPD4 250711Z 19015KT 16/15 A2994 RMK A01 T01580150  RH  095%=      5-min Rain = 0
KPD4 250712Z 19013KT 16/15 A2994 RMK A01 T01580149  RH  095%=      5-min Rain = 0
KPD4 250713Z 19013KT 16/15 A2994 RMK A01 T01590149  RH  094%=      5-min Rain = 0
KPD4 250714Z 20013KT 16/15 A2994 RMK A01 T01590149  RH  094%=      5-min Rain = 0
KPD4 250715Z 20015KT 16/15 A2994 RMK A01 T01590149  RH  094%=      5-min Rain = 0
KPD4 250716Z 20014KT 16/15 A2994 RMK A01 T01600150  RH  093%=      5-min Rain = 0
KPD4 250717Z 20015KT 16/15 A2994 RMK A01 T01610149  RH  093%=      5-min Rain = 0
KPD4 250718Z 20013KT 16/15 A2994 RMK A01 T01610149  RH  093%=      5-min Rain = 0
KPD4 250719Z 20013KT 16/15 A2994 RMK A01 T01620149  RH  092%=      5-min Rain = 0
KPD4 250720Z 20013KT 16/15 A2994 RMK A01 T01620150  RH  092%=      5-min Rain = 0
KPD4 250721Z 20012KT 16/15 A2994 RMK A01 T01620149  RH  092%=      5-min Rain = 0
KPD4 250722Z 20012KT 16/15 A2994 RMK A01 T01620150  RH  092%=      5-min Rain = 0
KPD4 250723Z 20014KT 16/15 A2994 RMK A01 T01620149  RH  092%=      5-min Rain = 0
KPD4 250724Z 20013KT 16/15 A2994 RMK A01 T01620149  RH  092%=      5-min Rain = 0
KPD4 250725Z 20013KT 16/15 A2994 RMK A01 T01620150  RH  092%=      5-min Rain = 0
KPD4 250726Z 20014KT 16/15 A2994 RMK A01 T01620149  RH  092%=      5-min Rain = 0
KPD4 250727Z 20013KT 16/15 A2994 RMK A01 T01630150  RH  092%=      5-min Rain = 0
KPD4 250728Z 20013KT 16/15 A2994 RMK A01 T01630149  RH  092%=      5-min Rain = 0
KPD4 250729Z 20012KT 16/15 A2994 RMK A01 T01630149  RH  092%=      5-min Rain = 0
KPD4 250730Z 20012KT 16/15 A2994 RMK A01 T01630150  RH  092%=      5-min Rain = 0
KPD4 250731Z 20013KT 16/15 A2994 RMK A01 T01630150  RH  092%=      5-min Rain = 0
KPD4 250732Z 20012KT 16/15 A2994 RMK A01 T01630149  RH  092%=      5-min Rain = 0
KPD4 250733Z 20013KT 16/15 A2994 RMK A01 T01630150  RH  092%=      5-min Rain = 0
KPD4 250734Z 20013KT 16/15 A2994 RMK A01 T01630150  RH  092%=      5-min Rain = 0
KPD4 250735Z 20011KT 16/15 A2994 RMK A01 T01630150  RH  092%=      5-min Rain = 0
KPD4 250736Z 20011KT 16/15 A2994 RMK A01 T01620149  RH  092%=      5-min Rain = 0
KPD4 250737Z 20011KT 16/15 A2994 RMK A01 T01620149  RH  092%=      5-min Rain = 0
KPD4 250738Z 19011KT 16/15 A2994 RMK A01 T01610149  RH  092%=      5-min Rain = 0
KPD4 250739Z 19010KT 16/15 A2994 RMK A01 T01610149  RH  093%=      5-min Rain = 0
KPD4 250740Z 19012KT 16/15 A2994 RMK A01 T01600149  RH  093%=      5-min Rain = 0
KPD4 250741Z 19011KT 16/15 A2994 RMK A01 T01600149  RH  093%=      5-min Rain = 0
KPD4 250742Z 19010KT 16/15 A2994 RMK A01 T01600149  RH  093%=      5-min Rain = 0
KPD4 250743Z 19010KT 16/15 A2994 RMK A01 T01600149  RH  093%=      5-min Rain = 0
KPD4 250744Z 19011KT 16/15 A2994 RMK A01 T01600149  RH  093%=      5-min Rain = 0
KPD4 250745Z 19011KT 16/15 A2994 RMK A01 T01590149  RH  093%=      5-min Rain = 0
KPD4 250746Z 19011KT 16/15 A2994 RMK A01 T01590149  RH  093%=      5-min Rain = 0
KPD4 250747Z 20011KT 16/15 A2994 RMK A01 T01590149  RH  093%=      5-min Rain = 0
KPD4 250748Z 20009KT 16/15 A2994 RMK A01 T01590149  RH  094%=      5-min Rain = 0
KPD4 250749Z 20009KT 16/15 A2994 RMK A01 T01580148  RH  094%=      5-min Rain = 0
KPD4 250750Z 20010KT 16/15 A2994 RMK A01 T01580148  RH  094%=      5-min Rain = 0
KPD4 250751Z 20010KT 16/15 A2993 RMK A01 T01570148  RH  094%=      5-min Rain = 0
KPD4 250752Z 20010KT 16/15 A2993 RMK A01 T01580148  RH  094%=      5-min Rain = 0
KPD4 250753Z 20009KT 16/15 A2993 RMK A01 T01580149  RH  094%=      5-min Rain = 0
KPD4 250754Z 20010KT 16/15 A2993 RMK A01 T01580149  RH  094%=      5-min Rain = 0
KPD4 250755Z 20010KT 16/15 A2993 RMK A01 T01590149  RH  094%=      5-min Rain = 0
KPD4 250756Z 20010KT 16/15 A2993 RMK A01 T01590149  RH  094%=      5-min Rain = 0
KPD4 250757Z 20010KT 16/15 A2993 RMK A01 T01590149  RH  094%=      5-min Rain = 0
KPD4 250758Z 20010KT 16/15 A2993 RMK A01 T01590149  RH  094%=      5-min Rain = 0
KPD4 250759Z 20009KT 16/15 A2993 RMK A01 T01600150  RH  094%=      5-min Rain = 0
KPD4 250800Z 19009KT 16/15 A2994 RMK A01 T01600150  RH  094%=      5-min Rain = 0
KPD4 250801Z 18009KT 16/15 A2994 RMK A01 T01600150  RH  094%=      5-min Rain = 0
KPD4 250802Z 18009KT 16/15 A2994 RMK A01 T01600150  RH  094%=      5-min Rain = 0
KPD4 250803Z 19008KT 16/15 A2994 RMK A01 T01610150  RH  094%=      5-min Rain = 0
KPD4 250804Z 19009KT 16/15 A2994 RMK A01 T01610151  RH  094%=      5-min Rain = 0
KPD4 250805Z 20009KT 16/15 A2994 RMK A01 T01610151  RH  094%=      5-min Rain = 0
KPD4 250806Z 19009KT 16/15 A2994 RMK A01 T01610151  RH  094%=      5-min Rain = 0
KPD4 250807Z 19010KT 16/15 A2994 RMK A01 T01600150  RH  094%=      5-min Rain = 0
KPD4 250808Z 19009KT 16/15 A2994 RMK A01 T01600150  RH  094%=      5-min Rain = 0
KPD4 250809Z 19009KT 16/15 A2994 RMK A01 T01600150  RH  094%=      5-min Rain = 0
KPD4 250810Z 20009KT 16/15 A2994 RMK A01 T01610151  RH  094%=      5-min Rain = 0
KPD4 250811Z 19010KT 16/15 A2994 RMK A01 T01610151  RH  094%=      5-min Rain = 0
KPD4 250812Z 20011KT 16/15 A2994 RMK A01 T01610151  RH  094%=      5-min Rain = 0
KPD4 250813Z 20011KT 16/15 A2993 RMK A01 T01620151  RH  093%=      5-min Rain = 0
KPD4 250814Z 19011KT 16/15 A2993 RMK A01 T01610150  RH  093%=      5-min Rain = 0
KPD4 250815Z 19011KT 16/15 A2993 RMK A01 T01620150  RH  093%=      5-min Rain = 0
KPD4 250816Z 19011KT 16/15 A2993 RMK A01 T01620151  RH  093%=      5-min Rain = 0
KPD4 250817Z 19011KT 16/15 A2993 RMK A01 T01610150  RH  093%=      5-min Rain = 0
KPD4 250818Z 19011KT 16/15 A2993 RMK A01 T01620151  RH  093%=      5-min Rain = 0
KPD4 250819Z 19011KT 16/15 A2993 RMK A01 T01610150  RH  093%=      5-min Rain = 0
KPD4 250820Z 19012KT 16/15 A2993 RMK A01 T01620150  RH  093%=      5-min Rain = 0
KPD4 250821Z 19011KT 16/15 A2993 RMK A01 T01620150  RH  093%=      5-min Rain = 0
KPD4 250822Z 18011KT 16/15 A2993 RMK A01 T01610150  RH  093%=      5-min Rain = 0
KPD4 250823Z 18011KT 16/15 A2993 RMK A01 T01610150  RH  093%=      5-min Rain = 0
KPD4 250824Z 18010KT 16/15 A2993 RMK A01 T01610150  RH  093%=      5-min Rain = 0
KPD4 250825Z 18011KT 16/15 A2993 RMK A01 T01610150  RH  093%=      5-min Rain = 0
KPD4 250826Z 18010KT 16/15 A2993 RMK A01 T01610150  RH  093%=      5-min Rain = 0
KPD4 250827Z 18009KT 16/15 A2993 RMK A01 T01600150  RH  093%=      5-min Rain = 0
KPD4 250828Z 18010KT 16/15 A2993 RMK A01 T01600150  RH  093%=      5-min Rain = 0
KPD4 250829Z 18009KT 16/15 A2993 RMK A01 T01600150  RH  094%=      5-min Rain = 0
KPD4 250830Z 18010KT 16/15 A2993 RMK A01 T01600150  RH  094%=      5-min Rain = 0
KPD4 250831Z 18010KT 16/15 A2993 RMK A01 T01600150  RH  094%=      5-min Rain = 0
KPD4 250832Z 18009KT 16/15 A2992 RMK A01 T01590150  RH  094%=      5-min Rain = 0
KPD4 250833Z 18011KT 16/15 A2992 RMK A01 T01590150  RH  094%=      5-min Rain = 0
KPD4 250834Z 18010KT 16/15 A2992 RMK A01 T01590150  RH  094%=      5-min Rain = 0
KPD4 250835Z 18009KT 16/15 A2992 RMK A01 T01590149  RH  094%=      5-min Rain = 0
KPD4 250836Z 17010KT 16/15 A2992 RMK A01 T01590150  RH  094%=      5-min Rain = 0
KPD4 250837Z 17010KT 16/15 A2992 RMK A01 T01590150  RH  094%=      5-min Rain = 0
KPD4 250838Z 17010KT 16/15 A2992 RMK A01 T01590149  RH  094%=      5-min Rain = 0
KPD4 250839Z 18010KT 16/15 A2992 RMK A01 T01580149  RH  094%=      5-min Rain = 0
KPD4 250840Z 18011KT 16/15 A2992 RMK A01 T01580149  RH  094%=      5-min Rain = 0
KPD4 250841Z 17010KT 16/15 A2992 RMK A01 T01580149  RH  094%=      5-min Rain = 0
KPD4 250842Z 18011KT 16/15 A2992 RMK A01 T01580149  RH  094%=      5-min Rain = 0
KPD4 250843Z 18011KT 16/15 A2992 RMK A01 T01580149  RH  094%=      5-min Rain = 0
KPD4 250844Z 18010KT 16/15 A2992 RMK A01 T01580149  RH  094%=      5-min Rain = 0
KPD4 250845Z 18010KT 16/15 A2992 RMK A01 T01580149  RH  094%=      5-min Rain = 0
KPD4 250846Z 18010KT 16/15 A2992 RMK A01 T01580149  RH  094%=      5-min Rain = 0
KPD4 250847Z 18011KT 16/15 A2992 RMK A01 T01580149  RH  095%=      5-min Rain = 0
KPD4 250848Z 18010KT 16/15 A2992 RMK A01 T01580149  RH  095%=      5-min Rain = 0
KPD4 250849Z 18010KT 16/15 A2992 RMK A01 T01570149  RH  095%=      5-min Rain = 0
KPD4 250850Z 18010KT 16/15 A2992 RMK A01 T01570149  RH  095%=      5-min Rain = 0
KPD4 250851Z 18011KT 16/15 A2992 RMK A01 T01570148  RH  095%=      5-min Rain = 0
KPD4 250852Z 18010KT 16/15 A2992 RMK A01 T01570149  RH  095%=      5-min Rain = 0
KPD4 250853Z 18011KT 16/15 A2992 RMK A01 T01570148  RH  095%=      5-min Rain = 0
KPD4 250854Z 18011KT 16/15 A2992 RMK A01 T01570149  RH  095%=      5-min Rain = 0
KPD4 250855Z 18011KT 16/15 A2992 RMK A01 T01560148  RH  095%=      5-min Rain = 0
KPD4 250856Z 18011KT 16/15 A2992 RMK A01 T01560148  RH  095%=      5-min Rain = 0
KPD4 250857Z 18012KT 16/15 A2992 RMK A01 T01570148  RH  095%=      5-min Rain = 0
KPD4 250858Z 18011KT 16/15 A2992 RMK A01 T01570149  RH  095%=      5-min Rain = 0
KPD4 250859Z 18012KT 16/15 A2992 RMK A01 T01570149  RH  094%=      5-min Rain = 0
KPD4 250900Z 18012KT 16/15 A2992 RMK A01 T01580149  RH  094%=      5-min Rain = 0
KPD4 250901Z 18012KT 16/15 A2992 RMK A01 T01580149  RH  094%=      5-min Rain = 0
KPD4 250902Z 18012KT 16/15 A2992 RMK A01 T01590149  RH  094%=      5-min Rain = 0
KPD4 250903Z 18013KT 16/15 A2992 RMK A01 T01590149  RH  094%=      5-min Rain = 0
KPD4 250904Z 18013KT 16/15 A2992 RMK A01 T01590149  RH  094%=      5-min Rain = 0
KPD4 250905Z 18012KT 16/15 A2992 RMK A01 T01600150  RH  094%=      5-min Rain = 0
KPD4 250906Z 19012KT 16/15 A2992 RMK A01 T01600150  RH  094%=      5-min Rain = 0
KPD4 250907Z 18013KT 16/15 A2992 RMK A01 T01600150  RH  094%=      5-min Rain = 0
KPD4 250908Z 18013KT 16/15 A2992 RMK A01 T01610150  RH  093%=      5-min Rain = 0
KPD4 250909Z 19012KT 16/15 A2992 RMK A01 T01610150  RH  093%=      5-min Rain = 0
KPD4 250910Z 19012KT 16/15 A2992 RMK A01 T01610150  RH  093%=      5-min Rain = 0
KPD4 250911Z 19012KT 16/15 A2992 RMK A01 T01610150  RH  093%=      5-min Rain = 0
KPD4 250912Z 19012KT 16/15 A2992 RMK A01 T01610150  RH  093%=      5-min Rain = 0
KPD4 250913Z 18012KT 16/15 A2992 RMK A01 T01620151  RH  093%=      5-min Rain = 0
KPD4 250914Z 19013KT 16/15 A2992 RMK A01 T01610151  RH  093%=      5-min Rain = 0
KPD4 250915Z 19012KT 16/15 A2992 RMK A01 T01610151  RH  093%=      5-min Rain = 0
KPD4 250916Z 19013KT 16/15 A2992 RMK A01 T01620151  RH  093%=      5-min Rain = 0
KPD4 250917Z 19012KT 16/15 A2992 RMK A01 T01610151  RH  094%=      5-min Rain = 0
KPD4 250918Z 19012KT 16/15 A2992 RMK A01 T01620152  RH  094%=      5-min Rain = 0
KPD4 250919Z 19012KT 16/15 A2992 RMK A01 T01620152  RH  093%=      5-min Rain = 0
KPD4 250920Z 19012KT 16/15 A2992 RMK A01 T01630152  RH  093%=      5-min Rain = 0
KPD4 250921Z 19013KT 16/15 A2992 RMK A01 T01630153  RH  093%=      5-min Rain = 0
KPD4 250922Z 19011KT 16/15 A2992 RMK A01 T01640153  RH  093%=      5-min Rain = 0
KPD4 250923Z 18012KT 16/15 A2992 RMK A01 T01640153  RH  093%=      5-min Rain = 0
KPD4 250924Z 18012KT 16/15 A2992 RMK A01 T01640153  RH  093%=      5-min Rain = 0
KPD4 250925Z 19013KT 16/15 A2992 RMK A01 T01640154  RH  094%=      5-min Rain = 0
KPD4 250926Z 19013KT 16/15 A2992 RMK A01 T01640154  RH  093%=      5-min Rain = 0
KPD4 250927Z 18012KT 16/15 A2992 RMK A01 T01640154  RH  093%=      5-min Rain = 0
KPD4 250928Z 19013KT 16/15 A2992 RMK A01 T01640154  RH  094%=      5-min Rain = 0
KPD4 250929Z 19013KT 16/16 A2992 RMK A01 T01640155  RH  094%=      5-min Rain = 0
KPD4 250930Z 19011KT 16/16 A2992 RMK A01 T01640155  RH  094%=      5-min Rain = 0
KPD4 250931Z 19011KT 17/16 A2992 RMK A01 T01650155  RH  094%=      5-min Rain = 0
KPD4 250932Z 19012KT 17/16 A2992 RMK A01 T01650156  RH  094%=      5-min Rain = 0
KPD4 250933Z 19012KT 17/16 A2992 RMK A01 T01660156  RH  094%=      5-min Rain = 0
KPD4 250934Z 19011KT 17/16 A2992 RMK A01 T01660157  RH  094%=      5-min Rain = 0
KPD4 250935Z 19011KT 17/16 A2992 RMK A01 T01670157  RH  094%=      5-min Rain = 0
KPD4 250936Z 18012KT 17/16 A2992 RMK A01 T01670157  RH  094%=      5-min Rain = 0
KPD4 250937Z 18010KT 17/16 A2992 RMK A01 T01670157  RH  094%=      5-min Rain = 0
KPD4 250938Z 18009KT 17/16 A2992 RMK A01 T01670157  RH  094%=      5-min Rain = 0
KPD4 250939Z 18011KT 17/16 A2992 RMK A01 T01660157  RH  094%=      5-min Rain = 0
KPD4 250940Z 18011KT 17/16 A2992 RMK A01 T01660158  RH  095%=      5-min Rain = 0
KPD4 250941Z 18011KT 17/16 A2992 RMK A01 T01660157  RH  094%=      5-min Rain = 0
KPD4 250942Z 18011KT 17/16 A2992 RMK A01 T01660158  RH  095%=      5-min Rain = 0
KPD4 250943Z 18012KT 17/16 A2992 RMK A01 T01660159  RH  095%=      5-min Rain = 0
KPD4 250944Z 18014KT 17/16 A2992 RMK A01 T01670160  RH  095%=      5-min Rain = 0
KPD4 250945Z 18013KT 17/16 A2992 RMK A01 T01680160  RH  095%=      5-min Rain = 0
KPD4 250946Z 18013KT 17/16 A2992 RMK A01 T01680160  RH  095%=      5-min Rain = 0
KPD4 250947Z 18013KT 17/16 A2992 RMK A01 T01680161  RH  095%=      5-min Rain = 0
KPD4 250948Z 18013KT 17/16 A2992 RMK A01 T01690162  RH  095%=      5-min Rain = 0
KPD4 250949Z 18012KT 17/16 A2992 RMK A01 T01700163  RH  095%=      5-min Rain = 0
KPD4 250950Z 18011KT 17/16 A2992 RMK A01 T01710162  RH  095%=      5-min Rain = 0
KPD4 250951Z 19013KT 17/16 A2992 RMK A01 T01710163  RH  095%=      5-min Rain = 0
KPD4 250952Z 19012KT 17/16 A2992 RMK A01 T01710163  RH  095%=      5-min Rain = 0
KPD4 250953Z 19011KT 17/16 A2992 RMK A01 T01710163  RH  095%=      5-min Rain = 0
KPD4 250954Z 19012KT 17/16 A2992 RMK A01 T01710164  RH  095%=      5-min Rain = 0
KPD4 250955Z 20010KT 17/16 A2992 RMK A01 T01720164  RH  095%=      5-min Rain = 0
KPD4 250956Z 19012KT 17/16 A2992 RMK A01 T01720164  RH  095%=      5-min Rain = 0
KPD4 250957Z 20012KT 17/17 A2992 RMK A01 T01720165  RH  095%=      5-min Rain = 0
KPD4 250958Z 19011KT 17/17 A2992 RMK A01 T01730165  RH  095%=      5-min Rain = 0
KPD4 250959Z 19012KT 17/17 A2992 RMK A01 T01730165  RH  095%=      5-min Rain = 0
KPD4 251000Z 20011KT 17/17 A2992 RMK A01 T01730166  RH  095%=      5-min Rain = 0
KPD4 251001Z 19011KT 17/17 A2992 RMK A01 T01740166  RH  095%=      5-min Rain = 0
KPD4 251002Z 19010KT 17/17 A2992 RMK A01 T01740166  RH  095%=      5-min Rain = 0
KPD4 251003Z 19010KT 17/17 A2992 RMK A01 T01740167  RH  095%=      5-min Rain = 0
KPD4 251004Z 19011KT 17/17 A2992 RMK A01 T01740167  RH  095%=      5-min Rain = 0
KPD4 251005Z 19011KT 18/17 A2992 RMK A01 T01750168  RH  096%=      5-min Rain = 0
KPD4 251006Z 19010KT 18/17 A2992 RMK A01 T01760168  RH  095%=      5-min Rain = 0
KPD4 251007Z 19011KT 18/17 A2992 RMK A01 T01760168  RH  095%=      5-min Rain = 0
KPD4 251008Z 19010KT 18/17 A2992 RMK A01 T01770170  RH  096%=      5-min Rain = 0
KPD4 251009Z 19010KT 18/17 A2992 RMK A01 T01770170  RH  095%=      5-min Rain = 0
KPD4 251010Z 19010KT 18/17 A2992 RMK A01 T01780170  RH  095%=      5-min Rain = 0
KPD4 251011Z 19009KT 18/17 A2992 RMK A01 T01780171  RH  095%=      5-min Rain = 0
KPD4 251012Z 19010KT 18/17 A2993 RMK A01 T01780171  RH  095%=      5-min Rain = 0
KPD4 251013Z 19010KT 18/17 A2993 RMK A01 T01790171  RH  095%=      5-min Rain = 0
KPD4 251014Z 20012KT 18/17 A2993 RMK A01 T01800172  RH  095%=      5-min Rain = 0
KPD4 251015Z 20011KT 18/17 A2993 RMK A01 T01800172  RH  095%=      5-min Rain = 0
KPD4 251016Z 20010G15KT 18/17 A2993 RMK A01 T01800172  RH  095%=      5-min Rain = 0
KPD4 251017Z 20011KT 18/17 A2993 RMK A01 T01810172  RH  095%=      5-min Rain = 0
KPD4 251018Z 19011KT 18/17 A2992 RMK A01 T01810172  RH  095%=      5-min Rain = 0
KPD4 251019Z 20010KT 18/17 A2992 RMK A01 T01810172  RH  095%=      5-min Rain = 0
KPD4 251020Z 19010KT 18/17 A2992 RMK A01 T01810172  RH  095%=      5-min Rain = 0
KPD4 251021Z 19009KT 18/17 A2992 RMK A01 T01810172  RH  095%=      5-min Rain = 0
KPD4 251022Z 19010KT 18/17 A2992 RMK A01 T01810172  RH  095%=      5-min Rain = 0
KPD4 251023Z 19011KT 18/17 A2992 RMK A01 T01810172  RH  095%=      5-min Rain = 0
KPD4 251024Z 19013KT 18/17 A2992 RMK A01 T01810172  RH  095%=      5-min Rain = 0
KPD4 251025Z 19012KT 18/17 A2992 RMK A01 T01810173  RH  095%=      5-min Rain = 0
KPD4 251026Z 19010KT 18/17 A2992 RMK A01 T01820173  RH  095%=      5-min Rain = 0
KPD4 251027Z 19009KT 18/17 A2992 RMK A01 T01820173  RH  095%=      5-min Rain = 0
KPD4 251028Z 19011KT 18/17 A2993 RMK A01 T01820173  RH  095%=      5-min Rain = 0
KPD4 251029Z 19012KT 18/17 A2993 RMK A01 T01820173  RH  095%=      5-min Rain = 0
KPD4 251030Z 19011KT 18/17 A2993 RMK A01 T01820173  RH  095%=      5-min Rain = 0
KPD4 251031Z 20011KT 18/17 A2993 RMK A01 T01830174  RH  095%=      5-min Rain = 0
KPD4 251032Z 19011KT 18/17 A2993 RMK A01 T01820174  RH  094%=      5-min Rain = 0
KPD4 251033Z 19013KT 18/17 A2993 RMK A01 T01830174  RH  095%=      5-min Rain = 0
KPD4 251034Z 19012KT 18/17 A2993 RMK A01 T01830174  RH  095%=      5-min Rain = 0
KPD4 251035Z 18012KT 18/17 A2993 RMK A01 T01830174  RH  094%=      5-min Rain = 0
KPD4 251036Z 19013KT 18/17 A2993 RMK A01 T01840174  RH  094%=      5-min Rain = 0
KPD4 251037Z 19013KT 18/17 A2993 RMK A01 T01840174  RH  094%=      5-min Rain = 0
KPD4 251038Z 19013KT 18/17 A2993 RMK A01 T01840174  RH  094%=      5-min Rain = 0
KPD4 251039Z 19012KT 18/17 A2993 RMK A01 T01840174  RH  094%=      5-min Rain = 0
KPD4 251040Z 18015KT 18/18 A2993 RMK A01 T01840175  RH  094%=      5-min Rain = 0
KPD4 251041Z 18011KT 19/18 A2993 RMK A01 T01850175  RH  094%=      5-min Rain = 0
KPD4 251042Z 18010KT 19/18 A2993 RMK A01 T01850175  RH  094%=      5-min Rain = 0
KPD4 251043Z 18011G16KT 19/18 A2993 RMK A01 T01850175  RH  094%=      5-min Rain = 0
KPD4 251044Z 18013KT 18/18 A2993 RMK A01 T01840175  RH  094%=      5-min Rain = 0
KPD4 251045Z 18015G20KT 18/18 A2992 RMK A01 T01840175  RH  094%=      5-min Rain = 0
KPD4 251046Z 18014G19KT 19/18 A2992 RMK A01 T01850175  RH  094%=      5-min Rain = 0
KPD4 251047Z 18017KT 19/18 A2992 RMK A01 T01850175  RH  094%=      5-min Rain = 0
KPD4 251048Z 18017KT 19/18 A2992 RMK A01 T01850175  RH  094%=      5-min Rain = 0
KPD4 251049Z 18016KT 19/18 A2993 RMK A01 T01850175  RH  093%=      5-min Rain = 0
KPD4 251050Z 18016KT 19/18 A2993 RMK A01 T01860175  RH  093%=      5-min Rain = 0
KPD4 251051Z 17018G24KT 19/18 A2993 RMK A01 T01860175  RH  093%=      5-min Rain = 0
KPD4 251052Z 18017KT 19/18 A2993 RMK A01 T01860175  RH  093%=      5-min Rain = 0
KPD4 251053Z 17016KT 19/18 A2993 RMK A01 T01860175  RH  093%=      5-min Rain = 0
KPD4 251054Z 18017KT 19/18 A2993 RMK A01 T01860175  RH  093%=      5-min Rain = 0
KPD4 251055Z 18012KT 19/18 A2993 RMK A01 T01860175  RH  094%=      5-min Rain = 0
KPD4 251056Z 18014G20KT 19/18 A2993 RMK A01 T01850175  RH  094%=      5-min Rain = 0
KPD4 251057Z 18016KT 19/18 A2993 RMK A01 T01850175  RH  094%=      5-min Rain = 0
KPD4 251058Z 18016KT 19/18 A2993 RMK A01 T01850175  RH  094%=      5-min Rain = 0
KPD4 251059Z 18015KT 19/18 A2993 RMK A01 T01850175  RH  094%=      5-min Rain = 0
KPD4 251100Z 19014KT 19/18 A2993 RMK A01 T01850175  RH  094%=      5-min Rain = 0
KPD4 251101Z 18015KT 19/18 A2993 RMK A01 T01850175  RH  094%=      5-min Rain = 0
KPD4 251102Z 18016KT 19/18 A2993 RMK A01 T01850175  RH  094%=      5-min Rain = 0
KPD4 251103Z 19015KT 19/18 A2993 RMK A01 T01850175  RH  094%=      5-min Rain = 0
KPD4 251104Z 19016KT 19/18 A2993 RMK A01 T01850175  RH  094%=      5-min Rain = 0
KPD4 251105Z 19015KT 19/18 A2993 RMK A01 T01860175  RH  094%=      5-min Rain = 0
KPD4 251106Z 19015G21KT 19/18 A2994 RMK A01 T01850175  RH  094%=      5-min Rain = 0
KPD4 251107Z 19015G22KT 19/18 A2993 RMK A01 T01850175  RH  094%=      5-min Rain = 0
KPD4 251108Z 19015KT 19/18 A2994 RMK A01 T01850175  RH  094%=      5-min Rain = 0
KPD4 251109Z 19016KT 19/18 A2994 RMK A01 T01860175  RH  094%=      5-min Rain = 0
KPD4 251110Z 19014KT 19/18 A2994 RMK A01 T01850175  RH  094%=      5-min Rain = 0
KPD4 251111Z 18016KT 19/18 A2994 RMK A01 T01850175  RH  094%=      5-min Rain = 0
KPD4 251112Z 19014KT 19/18 A2994 RMK A01 T01850175  RH  094%=      5-min Rain = 0
KPD4 251113Z 18017KT 19/18 A2994 RMK A01 T01850175  RH  094%=      5-min Rain = 0
KPD4 251114Z 18014KT 19/18 A2994 RMK A01 T01850175  RH  094%=      5-min Rain = 0
KPD4 251115Z 18015KT 19/18 A2994 RMK A01 T01850175  RH  094%=      5-min Rain = 0
KPD4 251116Z 19016KT 19/18 A2994 RMK A01 T01850175  RH  094%=      5-min Rain = 0
KPD4 251117Z 18015KT 19/18 A2994 RMK A01 T01850175  RH  094%=      5-min Rain = 0
KPD4 251118Z 18014KT 19/18 A2994 RMK A01 T01850175  RH  094%=      5-min Rain = 0
KPD4 251119Z 18016KT 19/18 A2994 RMK A01 T01850176  RH  094%=      5-min Rain = 0
KPD4 251120Z 18017KT 19/18 A2994 RMK A01 T01850175  RH  094%=      5-min Rain = 0
KPD4 251121Z 18017KT 19/18 A2994 RMK A01 T01850175  RH  094%=      5-min Rain = 0
KPD4 251122Z 19016KT 19/18 A2994 RMK A01 T01850175  RH  094%=      5-min Rain = 0
KPD4 251123Z 18014KT 19/18 A2994 RMK A01 T01850175  RH  094%=      5-min Rain = 0
KPD4 251124Z 18014KT 19/18 A2994 RMK A01 T01850175  RH  094%=      5-min Rain = 0
KPD4 251125Z 18014KT 19/18 A2994 RMK A01 T01850175  RH  094%=      5-min Rain = 0
KPD4 251126Z 18016KT 19/18 A2994 RMK A01 T01850175  RH  094%=      5-min Rain = 0
KPD4 251127Z 19016KT 19/18 A2994 RMK A01 T01850175  RH  094%=      5-min Rain = 0
KPD4 251128Z 19015KT 19/18 A2994 RMK A01 T01850175  RH  094%=      5-min Rain = 0
KPD4 251129Z 18014KT 19/18 A2994 RMK A01 T01850175  RH  094%=      5-min Rain = 0
KPD4 251130Z 18015KT 19/18 A2994 RMK A01 T01850175  RH  094%=      5-min Rain = 0
KPD4 251131Z 18015KT 19/18 A2994 RMK A01 T01850175  RH  094%=      5-min Rain = 0
KPD4 251132Z 18015G20KT 19/18 A2994 RMK A01 T01850175  RH  094%=      5-min Rain = 0
KPD4 251133Z 18017G22KT 19/18 A2994 RMK A01 T01850175  RH  094%=      5-min Rain = 0
KPD4 251134Z 18015KT 19/18 A2994 RMK A01 T01850176  RH  094%=      5-min Rain = 0
KPD4 251135Z 18017KT 19/18 A2994 RMK A01 T01850175  RH  094%=      5-min Rain = 0
KPD4 251136Z 18018KT 19/18 A2994 RMK A01 T01850175  RH  094%=      5-min Rain = 0
KPD4 251137Z 19016KT 19/18 A2994 RMK A01 T01850176  RH  094%=      5-min Rain = 0
KPD4 251138Z 19015KT 19/18 A2994 RMK A01 T01850176  RH  094%=      5-min Rain = 0
KPD4 251139Z 18014KT 19/18 A2994 RMK A01 T01850175  RH  094%=      5-min Rain = 0
KPD4 251140Z 19013KT 19/18 A2994 RMK A01 T01850176  RH  094%=      5-min Rain = 0
KPD4 251141Z 19016KT 19/18 A2994 RMK A01 T01850176  RH  094%=      5-min Rain = 0
KPD4 251142Z 18016KT 19/18 A2994 RMK A01 T01850176  RH  094%=      5-min Rain = 0
KPD4 251143Z 18015KT 19/18 A2994 RMK A01 T01850175  RH  094%=      5-min Rain = 0
KPD4 251144Z 18015KT 19/18 A2994 RMK A01 T01850175  RH  094%=      5-min Rain = 0
KPD4 251145Z 18016KT 19/18 A2994 RMK A01 T01850175  RH  094%=      5-min Rain = 0
KPD4 251146Z 19014KT 19/18 A2994 RMK A01 T01850175  RH  094%=      5-min Rain = 0
KPD4 251147Z 18014KT 19/18 A2995 RMK A01 T01850176  RH  094%=      5-min Rain = 0
KPD4 251148Z 18014KT 19/18 A2995 RMK A01 T01850176  RH  094%=      5-min Rain = 0
KPD4 251149Z 18012KT 19/18 A2995 RMK A01 T01850176  RH  094%=      5-min Rain = 0
KPD4 251150Z 19011KT 18/18 A2995 RMK A01 T01840175  RH  095%=      5-min Rain = 0
KPD4 251151Z 19013KT 18/18 A2995 RMK A01 T01840176  RH  095%=      5-min Rain = 0
KPD4 251152Z 18015KT 18/18 A2995 RMK A01 T01840176  RH  095%=      5-min Rain = 0
KPD4 251153Z 18013KT 18/18 A2995 RMK A01 T01840176  RH  095%=      5-min Rain = 0
KPD4 251154Z 18015KT 18/18 A2995 RMK A01 T01840176  RH  095%=      5-min Rain = 0
KPD4 251155Z 18016KT 18/18 A2995 RMK A01 T01840176  RH  095%=      5-min Rain = 0
KPD4 251156Z 18016KT 18/18 A2995 RMK A01 T01840175  RH  095%=      5-min Rain = 0
KPD4 251157Z 19017KT 19/18 A2995 RMK A01 T01850176  RH  094%=      5-min Rain = 0
KPD4 251158Z 18015KT 18/18 A2995 RMK A01 T01840175  RH  094%=      5-min Rain = 0
KPD4 251159Z 18016KT 18/18 A2995 RMK A01 T01840175  RH  094%=      5-min Rain = 0
KPD4 251200Z 19014KT 18/18 A2995 RMK A01 T01840175  RH  094%=      5-min Rain = 0
KPD4 251201Z 18013KT 18/18 A2995 RMK A01 T01840175  RH  094%=      5-min Rain = 0
KPD4 251202Z 19014KT 18/18 A2995 RMK A01 T01840175  RH  094%=      5-min Rain = 0
KPD4 251203Z 18015KT 18/18 A2995 RMK A01 T01840175  RH  094%=      5-min Rain = 0
KPD4 251204Z 18014KT 18/18 A2995 RMK A01 T01840175  RH  094%=      5-min Rain = 0
KPD4 251205Z 19018KT 18/18 A2995 RMK A01 T01840175  RH  094%=      5-min Rain = 0
KPD4 251206Z 18017KT 18/18 A2995 RMK A01 T01840175  RH  094%=      5-min Rain = 0
KPD4 251207Z 18015KT 18/18 A2995 RMK A01 T01840175  RH  094%=      5-min Rain = 0
KPD4 251208Z 18015KT 18/18 A2995 RMK A01 T01840175  RH  094%=      5-min Rain = 0
KPD4 251209Z 18012KT 19/18 A2995 RMK A01 T01850176  RH  094%=      5-min Rain = 0
KPD4 251210Z 19012G17KT 18/18 A2995 RMK A01 T01840176  RH  095%=      5-min Rain = 0
KPD4 251211Z 19017G22KT 18/18 A2995 RMK A01 T01840175  RH  095%=      5-min Rain = 0
KPD4 251212Z 18016KT 18/18 A2995 RMK A01 T01840175  RH  095%=      5-min Rain = 0
KPD4 251213Z 18016KT 18/18 A2995 RMK A01 T01840175  RH  095%=      5-min Rain = 0
KPD4 251214Z 18015KT 18/18 A2995 RMK A01 T01840175  RH  094%=      5-min Rain = 0
KPD4 251215Z 18019KT 18/18 A2995 RMK A01 T01840175  RH  094%=      5-min Rain = 0
KPD4 251216Z 18017KT 18/18 A2995 RMK A01 T01840175  RH  094%=      5-min Rain = 0
KPD4 251217Z 19015KT 18/18 A2995 RMK A01 T01840175  RH  094%=      5-min Rain = 0
KPD4 251218Z 18015KT 18/18 A2995 RMK A01 T01840175  RH  094%=      5-min Rain = 0
KPD4 251219Z 18015KT 18/18 A2995 RMK A01 T01840175  RH  094%=      5-min Rain = 0
KPD4 251220Z 18014KT 18/18 A2995 RMK A01 T01840175  RH  095%=      5-min Rain = 0
KPD4 251221Z 18014KT 18/18 A2995 RMK A01 T01840175  RH  095%=      5-min Rain = 0
KPD4 251222Z 18014KT 18/18 A2995 RMK A01 T01840175  RH  095%=      5-min Rain = 0
KPD4 251223Z 18015KT 18/18 A2995 RMK A01 T01840175  RH  095%=      5-min Rain = 0
KPD4 251224Z 18017KT 18/18 A2995 RMK A01 T01840175  RH  095%=      5-min Rain = 0
KPD4 251225Z 19015KT 18/18 A2995 RMK A01 T01840175  RH  095%=      5-min Rain = 0
KPD4 251226Z 19017KT 18/18 A2995 RMK A01 T01840175  RH  095%=      5-min Rain = 0
KPD4 251227Z 18012KT 18/18 A2995 RMK A01 T01840175  RH  095%=      5-min Rain = 0
KPD4 251228Z 19013KT 18/18 A2995 RMK A01 T01840175  RH  095%=      5-min Rain = 0
KPD4 251229Z 19013KT 18/18 A2995 RMK A01 T01840175  RH  095%=      5-min Rain = 0
KPD4 251230Z 18014KT 18/18 A2995 RMK A01 T01840175  RH  095%=      5-min Rain = 0
KPD4 251231Z 18016KT 18/18 A2995 RMK A01 T01840175  RH  095%=      5-min Rain = 0
KPD4 251232Z 19015KT 18/18 A2995 RMK A01 T01840175  RH  094%=      5-min Rain = 0
KPD4 251233Z 19015KT 18/18 A2995 RMK A01 T01840175  RH  094%=      5-min Rain = 0
KPD4 251234Z 19014G19KT 18/18 A2995 RMK A01 T01840175  RH  094%=      5-min Rain = 0
KPD4 251235Z 19015KT 19/18 A2995 RMK A01 T01850175  RH  094%=      5-min Rain = 0
KPD4 251236Z 18014KT 19/18 A2995 RMK A01 T01850176  RH  094%=      5-min Rain = 0
KPD4 251237Z 19014KT 19/18 A2995 RMK A01 T01850176  RH  094%=      5-min Rain = 0
KPD4 251238Z 19017KT 19/18 A2995 RMK A01 T01850176  RH  094%=      5-min Rain = 0
KPD4 251239Z 19016KT 19/18 A2995 RMK A01 T01850176  RH  094%=      5-min Rain = 0
KPD4 251240Z 19015KT 19/18 A2996 RMK A01 T01850176  RH  094%=      5-min Rain = 0
KPD4 251241Z 18017KT 19/18 A2996 RMK A01 T01850176  RH  094%=      5-min Rain = 0
KPD4 251242Z 19020KT 19/18 A2996 RMK A01 T01850176  RH  094%=      5-min Rain = 0
KPD4 251243Z 19016KT 19/18 A2996 RMK A01 T01850175  RH  094%=      5-min Rain = 0
KPD4 251244Z 19015G20KT 19/18 A2996 RMK A01 T01860176  RH  094%=      5-min Rain = 0
KPD4 251245Z 19016KT 19/18 A2996 RMK A01 T01860176  RH  094%=      5-min Rain = 0
KPD4 251246Z 19016KT 19/18 A2996 RMK A01 T01860176  RH  094%=      5-min Rain = 0
KPD4 251247Z 19017G22KT 19/18 A2996 RMK A01 T01860176  RH  094%=      5-min Rain = 0
KPD4 251248Z 19017KT 19/18 A2996 RMK A01 T01860176  RH  094%=      5-min Rain = 0
KPD4 251249Z 19016KT 19/18 A2996 RMK A01 T01860176  RH  094%=      5-min Rain = 0
KPD4 251250Z 19017KT 19/18 A2996 RMK A01 T01860176  RH  094%=      5-min Rain = 0
KPD4 251251Z 19017KT 19/18 A2996 RMK A01 T01860176  RH  094%=      5-min Rain = 0
KPD4 251252Z 19017KT 19/18 A2996 RMK A01 T01860176  RH  094%=      5-min Rain = 0
KPD4 251253Z 19016KT 19/18 A2996 RMK A01 T01860176  RH  094%=      5-min Rain = 0
KPD4 251254Z 19016KT 19/18 A2996 RMK A01 T01860176  RH  094%=      5-min Rain = 0
KPD4 251255Z 19016KT 19/18 A2996 RMK A01 T01860176  RH  094%=      5-min Rain = 0
KPD4 251256Z 18016KT 19/18 A2996 RMK A01 T01860176  RH  094%=      5-min Rain = 0
KPD4 251257Z 19016KT 19/18 A2996 RMK A01 T01860176  RH  094%=      5-min Rain = 0
KPD4 251258Z 19017KT 19/18 A2996 RMK A01 T01870176  RH  094%=      5-min Rain = 0
KPD4 251259Z 19016KT 19/18 A2996 RMK A01 T01870176  RH  094%=      5-min Rain = 0
KPD4 251300Z 19014KT 19/18 A2996 RMK A01 T01870176  RH  094%=      5-min Rain = 0
KPD4 251301Z 18015KT 19/18 A2997 RMK A01 T01870177  RH  094%=      5-min Rain = 0
KPD4 251302Z 19015KT 19/18 A2996 RMK A01 T01870177  RH  094%=      5-min Rain = 0
KPD4 251303Z 19016KT 19/18 A2997 RMK A01 T01870177  RH  094%=      5-min Rain = 0
KPD4 251304Z 19013KT 19/18 A2997 RMK A01 T01860176  RH  094%=      5-min Rain = 0
KPD4 251305Z 19014KT 19/18 A2997 RMK A01 T01860176  RH  094%=      5-min Rain = 0
KPD4 251306Z 19015KT 19/18 A2997 RMK A01 T01860176  RH  094%=      5-min Rain = 0
KPD4 251307Z 19016KT 19/18 A2997 RMK A01 T01860176  RH  094%=      5-min Rain = 0
KPD4 251308Z 19017KT 19/18 A2997 RMK A01 T01860176  RH  094%=      5-min Rain = 0
KPD4 251309Z 19016KT 19/18 A2997 RMK A01 T01860176  RH  094%=      5-min Rain = 0
KPD4 251310Z 19018KT 19/18 A2997 RMK A01 T01860176  RH  094%=      5-min Rain = 0
KPD4 251311Z 19016G21KT 19/18 A2997 RMK A01 T01860176  RH  094%=      5-min Rain = 0
KPD4 251312Z 19014KT 19/18 A2997 RMK A01 T01860176  RH  094%=      5-min Rain = 0
KPD4 251313Z 19016KT 19/18 A2997 RMK A01 T01860176  RH  094%=      5-min Rain = 0
KPD4 251314Z 19015KT 19/18 A2997 RMK A01 T01860176  RH  094%=      5-min Rain = 0
KPD4 251315Z 19016KT 19/18 A2997 RMK A01 T01860176  RH  094%=      5-min Rain = 0
KPD4 251316Z 19015KT 19/18 A2997 RMK A01 T01860176  RH  094%=      5-min Rain = 0
KPD4 251317Z 19016KT 19/18 A2997 RMK A01 T01870177  RH  094%=      5-min Rain = 0
KPD4 251318Z 19015KT 19/18 A2997 RMK A01 T01870177  RH  094%=      5-min Rain = 0
KPD4 251319Z 19013KT 19/18 A2997 RMK A01 T01860176  RH  094%=      5-min Rain = 0
KPD4 251320Z 19014KT 19/18 A2997 RMK A01 T01870177  RH  094%=      5-min Rain = 0
KPD4 251321Z 19014KT 19/18 A2997 RMK A01 T01870177  RH  094%=      5-min Rain = 0
KPD4 251322Z 19017KT 19/18 A2997 RMK A01 T01870177  RH  094%=      5-min Rain = 0
KPD4 251323Z 19017KT 19/18 A2997 RMK A01 T01870177  RH  094%=      5-min Rain = 0
KPD4 251324Z 19016KT 19/18 A2997 RMK A01 T01870177  RH  094%=      5-min Rain = 0
KPD4 251325Z 19016KT 19/18 A2997 RMK A01 T01870177  RH  094%=      5-min Rain = 0
KPD4 251326Z 19016KT 19/18 A2997 RMK A01 T01880177  RH  094%=      5-min Rain = 0
KPD4 251327Z 19016KT 19/18 A2997 RMK A01 T01870177  RH  094%=      5-min Rain = 0
KPD4 251328Z 19014KT 19/18 A2997 RMK A01 T01880177  RH  094%=      5-min Rain = 0
KPD4 251329Z 19014KT 19/18 A2997 RMK A01 T01880178  RH  094%=      5-min Rain = 0
KPD4 251330Z 19017KT 19/18 A2997 RMK A01 T01880178  RH  094%=      5-min Rain = 0
KPD4 251331Z 20017KT 19/18 A2997 RMK A01 T01880177  RH  094%=      5-min Rain = 0
KPD4 251332Z 19013KT 19/18 A2997 RMK A01 T01880178  RH  093%=      5-min Rain = 0
KPD4 251333Z 20012KT 19/18 A2997 RMK A01 T01890178  RH  094%=      5-min Rain = 0
KPD4 251334Z 19013KT 19/18 A2997 RMK A01 T01890179  RH  094%=      5-min Rain = 0
KPD4 251335Z 19014KT 19/18 A2997 RMK A01 T01890178  RH  094%=      5-min Rain = 0
KPD4 251336Z 19014KT 19/18 A2997 RMK A01 T01890178  RH  093%=      5-min Rain = 0
KPD4 251337Z 19017KT 19/18 A2997 RMK A01 T01900179  RH  093%=      5-min Rain = 0
KPD4 251338Z 19016KT 19/18 A2997 RMK A01 T01890178  RH  093%=      5-min Rain = 0
KPD4 251339Z 19016KT 19/18 A2997 RMK A01 T01890178  RH  093%=      5-min Rain = 0
KPD4 251340Z 19014KT 19/18 A2997 RMK A01 T01890178  RH  093%=      5-min Rain = 0
KPD4 251341Z 20014KT 19/18 A2997 RMK A01 T01900179  RH  093%=      5-min Rain = 0
KPD4 251342Z 19012KT 19/18 A2997 RMK A01 T01900179  RH  093%=      5-min Rain = 0
KPD4 251343Z 19014KT 19/18 A2997 RMK A01 T01900179  RH  093%=      5-min Rain = 0
KPD4 251344Z 19013KT 19/18 A2997 RMK A01 T01900179  RH  093%=      5-min Rain = 0
KPD4 251345Z 20012KT 19/18 A2997 RMK A01 T01900179  RH  093%=      5-min Rain = 0
KPD4 251346Z 19015KT 19/18 A2997 RMK A01 T01900179  RH  093%=      5-min Rain = 0
KPD4 251347Z 20014G19KT 19/18 A2997 RMK A01 T01910179  RH  093%=      5-min Rain = 0
KPD4 251348Z 19015KT 19/18 A2997 RMK A01 T01910179  RH  093%=      5-min Rain = 0
KPD4 251349Z 20016KT 19/18 A2997 RMK A01 T01910179  RH  093%=      5-min Rain = 0
KPD4 251350Z 20013KT 19/18 A2997 RMK A01 T01910179  RH  093%=      5-min Rain = 0
KPD4 251351Z 19012KT 19/18 A2997 RMK A01 T01920180  RH  093%=      5-min Rain = 0
KPD4 251352Z 19014KT 19/18 A2997 RMK A01 T01920180  RH  093%=      5-min Rain = 0
KPD4 251353Z 20012KT 19/18 A2997 RMK A01 T01920180  RH  093%=      5-min Rain = 0
KPD4 251354Z 20014KT 19/18 A2997 RMK A01 T01920180  RH  093%=      5-min Rain = 0
KPD4 251355Z 19012KT 19/18 A2997 RMK A01 T01930180  RH  092%=      5-min Rain = 0
KPD4 251356Z 20012KT 19/18 A2997 RMK A01 T01930180  RH  093%=      5-min Rain = 0
KPD4 251357Z 19013KT 19/18 A2997 RMK A01 T01930180  RH  092%=      5-min Rain = 0
KPD4 251358Z 20013KT 19/18 A2997 RMK A01 T01930180  RH  092%=      5-min Rain = 0
KPD4 251359Z 20012KT 19/18 A2998 RMK A01 T01930181  RH  092%=      5-min Rain = 0
KPD4 251400Z 19010KT 19/18 A2998 RMK A01 T01930181  RH  092%=      5-min Rain = 0
KPD4 251401Z 20011KT 19/18 A2998 RMK A01 T01940181  RH  092%=      5-min Rain = 0
KPD4 251402Z 19010KT 19/18 A2998 RMK A01 T01940181  RH  092%=      5-min Rain = 0
KPD4 251403Z 19011KT 19/18 A2998 RMK A01 T01940181  RH  092%=      5-min Rain = 0
KPD4 251404Z 19012KT 19/18 A2998 RMK A01 T01940181  RH  092%=      5-min Rain = 0
KPD4 251405Z 20014KT 20/18 A2998 RMK A01 T01950182  RH  092%=      5-min Rain = 0
KPD4 251406Z 20013KT 20/18 A2998 RMK A01 T01950181  RH  092%=      5-min Rain = 0
KPD4 251407Z 20013KT 20/18 A2998 RMK A01 T01950181  RH  092%=      5-min Rain = 0
KPD4 251408Z 20014KT 20/18 A2998 RMK A01 T01950181  RH  091%=      5-min Rain = 0
KPD4 251409Z 20012KT 20/18 A2998 RMK A01 T01960181  RH  092%=      5-min Rain = 0
KPD4 251410Z 20009KT 20/18 A2998 RMK A01 T01960182  RH  092%=      5-min Rain = 0
KPD4 251411Z 20011KT 20/18 A2998 RMK A01 T01960182  RH  092%=      5-min Rain = 0
KPD4 251412Z 21012KT 20/18 A2998 RMK A01 T01960182  RH  091%=      5-min Rain = 0
KPD4 251413Z 20011KT 20/18 A2998 RMK A01 T01960182  RH  091%=      5-min Rain = 0
KPD4 251414Z 20012KT 20/18 A2998 RMK A01 T01970182  RH  091%=      5-min Rain = 0
KPD4 251415Z 21012KT 20/18 A2998 RMK A01 T01970182  RH  091%=      5-min Rain = 0
KPD4 251416Z 19009KT 20/18 A2998 RMK A01 T01970182  RH  091%=      5-min Rain = 0
KPD4 251417Z 20012KT 20/18 A2998 RMK A01 T01980183  RH  091%=      5-min Rain = 0
KPD4 251418Z 20011KT 20/18 A2998 RMK A01 T01980182  RH  091%=      5-min Rain = 0
KPD4 251419Z 20010KT 20/18 A2998 RMK A01 T01980183  RH  091%=      5-min Rain = 0
KPD4 251420Z 20010KT 20/18 A2998 RMK A01 T01980183  RH  091%=      5-min Rain = 0
KPD4 251421Z 20009KT 20/18 A2998 RMK A01 T01990184  RH  091%=      5-min Rain = 0
KPD4 251422Z 20011KT 20/18 A2998 RMK A01 T01990183  RH  091%=      5-min Rain = 0
KPD4 251423Z 20010KT 20/18 A2998 RMK A01 T01990183  RH  091%=      5-min Rain = 0
KPD4 251424Z 19011KT 20/18 A2998 RMK A01 T01990184  RH  091%=      5-min Rain = 0
KPD4 251425Z 19013KT 20/18 A2998 RMK A01 T01990183  RH  090%=      5-min Rain = 0
KPD4 251426Z 20012KT 20/18 A2998 RMK A01 T01990183  RH  090%=      5-min Rain = 0
KPD4 251427Z 19010KT 20/18 A2998 RMK A01 T02000184  RH  090%=      5-min Rain = 0
KPD4 251428Z 20010KT 20/18 A2998 RMK A01 T02000184  RH  090%=      5-min Rain = 0
KPD4 251429Z 20011KT 20/18 A2998 RMK A01 T02010184  RH  090%=      5-min Rain = 0
KPD4 251430Z 20012KT 20/18 A2998 RMK A01 T02010184  RH  090%=      5-min Rain = 0
KPD4 251431Z 20012KT 20/18 A2998 RMK A01 T02010184  RH  090%=      5-min Rain = 0
KPD4 251432Z 20012KT 20/18 A2998 RMK A01 T02010183  RH  090%=      5-min Rain = 0
KPD4 251433Z 20011KT 20/18 A2998 RMK A01 T02020184  RH  090%=      5-min Rain = 0
KPD4 251434Z 20012KT 20/18 A2998 RMK A01 T02010184  RH  090%=      5-min Rain = 0
KPD4 251435Z 20010KT 20/18 A2998 RMK A01 T02010184  RH  090%=      5-min Rain = 0
KPD4 251436Z 20010KT 20/19 A2998 RMK A01 T02020185  RH  090%=      5-min Rain = 0
KPD4 251437Z 20012KT 20/18 A2998 RMK A01 T02020184  RH  090%=      5-min Rain = 0
KPD4 251438Z 20013KT 20/18 A2998 RMK A01 T02020184  RH  089%=      5-min Rain = 0
KPD4 251439Z 20013KT 20/18 A2998 RMK A01 T02030184  RH  089%=      5-min Rain = 0
KPD4 251440Z 20010KT 20/19 A2998 RMK A01 T02030185  RH  089%=      5-min Rain = 0
KPD4 251441Z 20012KT 20/19 A2998 RMK A01 T02040186  RH  089%=      5-min Rain = 0
KPD4 251442Z 20012KT 20/19 A2998 RMK A01 T02040185  RH  089%=      5-min Rain = 0
KPD4 251443Z 19010KT 21/19 A2998 RMK A01 T02050185  RH  089%=      5-min Rain = 0
KPD4 251444Z 20012KT 21/19 A2998 RMK A01 T02050186  RH  089%=      5-min Rain = 0
KPD4 251445Z 20013KT 21/19 A2998 RMK A01 T02050185  RH  088%=      5-min Rain = 0
KPD4 251446Z 20013KT 21/19 A2998 RMK A01 T02050185  RH  088%=      5-min Rain = 0
KPD4 251447Z 20014KT 21/19 A2998 RMK A01 T02050185  RH  088%=      5-min Rain = 0
KPD4 251448Z 20013KT 21/19 A2999 RMK A01 T02050185  RH  088%=      5-min Rain = 0
KPD4 251449Z 21013KT 21/19 A2998 RMK A01 T02050185  RH  088%=      5-min Rain = 0
KPD4 251450Z 20012KT 21/19 A2999 RMK A01 T02050185  RH  088%=      5-min Rain = 0
KPD4 251451Z 20015KT 21/18 A2999 RMK A01 T02050184  RH  088%=      5-min Rain = 0
KPD4 251452Z 20015KT 21/19 A2999 RMK A01 T02060185  RH  088%=      5-min Rain = 0
KPD4 251453Z 20013KT 21/18 A2999 RMK A01 T02050184  RH  088%=      5-min Rain = 0
KPD4 251454Z 21015KT 21/18 A2999 RMK A01 T02060184  RH  087%=      5-min Rain = 0
KPD4 251455Z 21016KT 21/18 A2999 RMK A01 T02070184  RH  087%=      5-min Rain = 0
KPD4 251456Z 21015KT 21/18 A2999 RMK A01 T02070184  RH  087%=      5-min Rain = 0
KPD4 251457Z 21015KT 21/19 A2999 RMK A01 T02080185  RH  087%=      5-min Rain = 0
KPD4 251458Z 21016KT 21/19 A2999 RMK A01 T02090185  RH  086%=      5-min Rain = 0
KPD4 251459Z 21018KT 21/18 A2999 RMK A01 T02100184  RH  085%=      5-min Rain = 0
KPD4 251500Z 21017KT 21/18 A2999 RMK A01 T02100184  RH  085%=      5-min Rain = 0
KPD4 251501Z 21017KT 21/18 A2999 RMK A01 T02100184  RH  085%=      5-min Rain = 0
KPD4 251502Z 21018KT 21/18 A2999 RMK A01 T02110184  RH  085%=      5-min Rain = 0
KPD4 251503Z 21019KT 21/19 A2999 RMK A01 T02120185  RH  085%=      5-min Rain = 0
KPD4 251504Z 20019KT 21/18 A2999 RMK A01 T02110184  RH  084%=      5-min Rain = 0
KPD4 251505Z 21017KT 21/18 A2999 RMK A01 T02110184  RH  084%=      5-min Rain = 0
KPD4 251506Z 20018KT 21/18 A2999 RMK A01 T02110184  RH  085%=      5-min Rain = 0
KPD4 251507Z 20016KT 21/18 A2999 RMK A01 T02110184  RH  085%=      5-min Rain = 0
KPD4 251508Z 21017KT 21/18 A2999 RMK A01 T02100184  RH  085%=      5-min Rain = 0
KPD4 251509Z 21016G21KT 21/18 A2999 RMK A01 T02110184  RH  085%=      5-min Rain = 0
KPD4 251510Z 21017KT 21/18 A2999 RMK A01 T02110184  RH  085%=      5-min Rain = 0
KPD4 251511Z 21018G23KT 21/18 A2999 RMK A01 T02100184  RH  085%=      5-min Rain = 0
KPD4 251512Z 21018KT 21/18 A2999 RMK A01 T02100184  RH  085%=      5-min Rain = 0
KPD4 251513Z 21016G21KT 21/18 A2999 RMK A01 T02100184  RH  085%=      5-min Rain = 0
KPD4 251514Z 21014KT 21/18 A2999 RMK A01 T02100184  RH  085%=      5-min Rain = 0
KPD4 251515Z 21017KT 21/18 A2999 RMK A01 T02090184  RH  085%=      5-min Rain = 0
KPD4 251516Z 21016KT 21/18 A2999 RMK A01 T02100184  RH  085%=      5-min Rain = 0
KPD4 251517Z 21016KT 21/18 A2999 RMK A01 T02100184  RH  085%=      5-min Rain = 0
KPD4 251518Z 21017KT 21/18 A2999 RMK A01 T02100184  RH  085%=      5-min Rain = 0
KPD4 251519Z 22014KT 21/18 A2999 RMK A01 T02100184  RH  085%=      5-min Rain = 0
KPD4 251520Z 21015KT 21/19 A2999 RMK A01 T02110185  RH  085%=      5-min Rain = 0
KPD4 251521Z 21016KT 21/18 A2999 RMK A01 T02100184  RH  085%=      5-min Rain = 0
KPD4 251522Z 20012KT 21/19 A2999 RMK A01 T02100185  RH  085%=      5-min Rain = 0
KPD4 251523Z 20015KT 21/19 A2999 RMK A01 T02110185  RH  085%=      5-min Rain = 0
KPD4 251524Z 21014KT 21/19 A2999 RMK A01 T02110185  RH  085%=      5-min Rain = 0
KPD4 251525Z 20015KT 21/19 A2999 RMK A01 T02110185  RH  085%=      5-min Rain = 0
KPD4 251526Z 21013KT 21/19 A2999 RMK A01 T02110186  RH  085%=      5-min Rain = 0
KPD4 251527Z 22013KT 21/19 A2999 RMK A01 T02110186  RH  085%=      5-min Rain = 0
KPD4 251528Z 21013KT 21/19 A30 RMK A01 T02110186  RH  085%=      5-min Rain = 0
KPD4 251529Z 21013KT 21/19 A30 RMK A01 T02110186  RH  085%=      5-min Rain = 0
KPD4 251530Z 21014KT 21/19 A30 RMK A01 T02110186  RH  086%=      5-min Rain = 0
KPD4 251531Z 20016KT 21/19 A30 RMK A01 T02110185  RH  085%=      5-min Rain = 0
KPD4 251532Z 21016KT 21/19 A30 RMK A01 T02110185  RH  085%=      5-min Rain = 0
KPD4 251533Z 20016KT 21/19 A30 RMK A01 T02100185  RH  085%=      5-min Rain = 0
KPD4 251534Z 21016KT 21/19 A30 RMK A01 T02100185  RH  085%=      5-min Rain = 0
KPD4 251535Z 21015KT 21/19 A30 RMK A01 T02100185  RH  085%=      5-min Rain = 0
KPD4 251536Z 20013KT 21/19 A30 RMK A01 T02100186  RH  086%=      5-min Rain = 0
KPD4 251537Z 21015KT 21/19 A30 RMK A01 T02100185  RH  086%=      5-min Rain = 0
KPD4 251538Z 21014KT 21/19 A30 RMK A01 T02110185  RH  085%=      5-min Rain = 0
KPD4 251539Z 21013KT 21/19 A30 RMK A01 T02110186  RH  086%=      5-min Rain = 0
KPD4 251540Z 21013KT 21/19 A30 RMK A01 T02110186  RH  086%=      5-min Rain = 0
KPD4 251541Z 21014KT 21/19 A30 RMK A01 T02110186  RH  086%=      5-min Rain = 0
KPD4 251542Z 20016KT 21/19 A30 RMK A01 T02110185  RH  086%=      5-min Rain = 0
KPD4 251543Z 20015KT 21/19 A30 RMK A01 T02100185  RH  086%=      5-min Rain = 0
KPD4 251544Z 20013KT 21/19 A30 RMK A01 T02110186  RH  086%=      5-min Rain = 0
KPD4 251545Z 21013KT 21/19 A30 RMK A01 T02110186  RH  086%=      5-min Rain = 0
KPD4 251546Z 20012KT 21/19 A30 RMK A01 T02110186  RH  086%=      5-min Rain = 0
KPD4 251547Z 20012KT 21/19 A30 RMK A01 T02110186  RH  086%=      5-min Rain = 0
KPD4 251548Z 20014KT 21/19 A30 RMK A01 T02120186  RH  086%=      5-min Rain = 0
KPD4 251549Z 20011KT 21/19 A30 RMK A01 T02110186  RH  085%=      5-min Rain = 0
KPD4 251550Z 21011KT 21/19 A30 RMK A01 T02120187  RH  086%=      5-min Rain = 0
KPD4 251551Z 20012KT 21/19 A30 RMK A01 T02120187  RH  086%=      5-min Rain = 0
KPD4 251552Z 20012KT 21/19 A30 RMK A01 T02120187  RH  086%=      5-min Rain = 0
KPD4 251553Z 20012KT 21/19 A30 RMK A01 T02120187  RH  085%=      5-min Rain = 0
KPD4 251554Z 21011KT 21/19 A30 RMK A01 T02120187  RH  085%=      5-min Rain = 0
KPD4 251555Z 21011KT 21/19 A30 RMK A01 T02130188  RH  086%=      5-min Rain = 0
KPD4 251556Z 21013KT 21/19 A30 RMK A01 T02130187  RH  085%=      5-min Rain = 0
KPD4 251557Z 21012KT 21/19 A30 RMK A01 T02140187  RH  085%=      5-min Rain = 0
KPD4 251558Z 20013KT 21/19 A30 RMK A01 T02140187  RH  085%=      5-min Rain = 0
KPD4 251559Z 20013KT 22/19 A30 RMK A01 T02150187  RH  084%=      5-min Rain = 0
KPD4 251600Z 20011KT 22/19 A30 RMK A01 T02150187  RH  084%=      5-min Rain = 0
KPD4 251601Z 20013KT 22/19 A30 RMK A01 T02150188  RH  085%=      5-min Rain = 0
KPD4 251602Z 20011KT 22/19 A30 RMK A01 T02150188  RH  084%=      5-min Rain = 0
KPD4 251603Z 20011KT 22/19 A30 RMK A01 T02160189  RH  085%=      5-min Rain = 0
KPD4 251604Z 20012KT 22/19 A30 RMK A01 T02160189  RH  084%=      5-min Rain = 0
KPD4 251605Z 20013KT 22/19 A30 RMK A01 T02170189  RH  084%=      5-min Rain = 0
KPD4 251606Z 20012KT 22/19 A30 RMK A01 T02170189  RH  084%=      5-min Rain = 0
KPD4 251607Z 21013KT 22/19 A30 RMK A01 T02180189  RH  083%=      5-min Rain = 0
KPD4 251608Z 21011KT 22/19 A30 RMK A01 T02180189  RH  083%=      5-min Rain = 0
KPD4 251609Z 21011KT 22/19 A30 RMK A01 T02180189  RH  083%=      5-min Rain = 0
KPD4 251610Z 20012G19KT 22/19 A30 RMK A01 T02180189  RH  084%=      5-min Rain = 0
KPD4 251611Z 20016KT 22/19 A30 RMK A01 T02190188  RH  083%=      5-min Rain = 0
KPD4 251612Z 21013KT 22/19 A30 RMK A01 T02190188  RH  083%=      5-min Rain = 0
KPD4 251613Z 21014KT 22/19 A30 RMK A01 T02190188  RH  083%=      5-min Rain = 0
KPD4 251614Z 21013KT 22/19 A30 RMK A01 T02190188  RH  083%=      5-min Rain = 0
KPD4 251615Z 20011KT 22/19 A30 RMK A01 T02190189  RH  083%=      5-min Rain = 0
KPD4 251616Z 19011KT 22/19 A30 RMK A01 T02190190  RH  083%=      5-min Rain = 0
KPD4 251617Z 19013KT 22/19 A30 RMK A01 T02200189  RH  083%=      5-min Rain = 0
KPD4 251618Z 20012KT 22/19 A30 RMK A01 T02190188  RH  083%=      5-min Rain = 0
KPD4 251619Z 20014KT 22/19 A30 RMK A01 T02190189  RH  083%=      5-min Rain = 0
KPD4 251620Z 20014KT 22/19 A30 RMK A01 T02190189  RH  083%=      5-min Rain = 0
KPD4 251621Z 20012KT 22/19 A30 RMK A01 T02190188  RH  083%=      5-min Rain = 0
KPD4 251622Z 20014KT 22/19 A30 RMK A01 T02190189  RH  083%=      5-min Rain = 0
KPD4 251623Z 20013KT 22/19 A30 RMK A01 T02190188  RH  082%=      5-min Rain = 0
KPD4 251624Z 21012KT 22/19 A30 RMK A01 T02190189  RH  083%=      5-min Rain = 0
KPD4 251625Z 19013KT 22/19 A30 RMK A01 T02190188  RH  083%=      5-min Rain = 0
KPD4 251626Z 20010KT 22/19 A30 RMK A01 T02200189  RH  083%=      5-min Rain = 0
KPD4 251627Z 21009KT 22/19 A30 RMK A01 T02200191  RH  083%=      5-min Rain = 0
KPD4 251628Z 21009KT 22/19 A30 RMK A01 T02230193  RH  083%=      5-min Rain = 0
KPD4 251629Z 21011KT 22/19 A30 RMK A01 T02240191  RH  081%=      5-min Rain = 0
KPD4 251630Z 21012KT 22/19 A30 RMK A01 T02240190  RH  081%=      5-min Rain = 0
KPD4 251631Z 21011KT 23/19 A30 RMK A01 T02250191  RH  081%=      5-min Rain = 0
KPD4 251632Z 20007KT 23/19 A30 RMK A01 T02250192  RH  082%=      5-min Rain = 0
KPD4 251633Z 21012KT 23/19 A30 RMK A01 T02260192  RH  081%=      5-min Rain = 0
KPD4 251634Z 20010KT 23/19 A30 RMK A01 T02260191  RH  080%=      5-min Rain = 0
KPD4 251635Z 20011KT 23/19 A30 RMK A01 T02270192  RH  081%=      5-min Rain = 0
KPD4 251636Z 20012KT 23/19 A30 RMK A01 T02270192  RH  080%=      5-min Rain = 0
KPD4 251637Z 20010KT 23/19 A30 RMK A01 T02270192  RH  081%=      5-min Rain = 0
KPD4 251638Z 19013KT 23/19 A30 RMK A01 T02280192  RH  080%=      5-min Rain = 0
KPD4 251639Z 19010KT 23/19 A30 RMK A01 T02270190  RH  080%=      5-min Rain = 0
KPD4 251640Z 18009KT 23/19 A30 RMK A01 T02260192  RH  081%=      5-min Rain = 0
KPD4 251641Z 19011KT 23/19 A30 RMK A01 T02260191  RH  081%=      5-min Rain = 0
KPD4 251642Z 18011KT 23/19 A30 RMK A01 T02270192  RH  080%=      5-min Rain = 0
KPD4 251643Z 18012KT 23/19 A30 RMK A01 T02280192  RH  080%=      5-min Rain = 0
KPD4 251644Z 19012KT 23/19 A30 RMK A01 T02290190  RH  079%=      5-min Rain = 0
KPD4 251645Z 19012KT 23/19 A30 RMK A01 T02290192  RH  080%=      5-min Rain = 0
KPD4 251646Z 19012KT 23/19 A30 RMK A01 T02290192  RH  079%=      5-min Rain = 0
KPD4 251647Z 18012KT 23/19 A30 RMK A01 T02300192  RH  079%=      5-min Rain = 0
KPD4 251648Z 18013KT 23/19 A30 RMK A01 T02310192  RH  079%=      5-min Rain = 0
KPD4 251649Z 19012KT 23/19 A30 RMK A01 T02310191  RH  078%=      5-min Rain = 0
KPD4 251650Z 18011KT 23/19 A30 RMK A01 T02320192  RH  078%=      5-min Rain = 0
KPD4 251651Z 20012KT 24/19 A30 RMK A01 T02350193  RH  077%=      5-min Rain = 0
KPD4 251652Z 20011KT 24/19 A30 RMK A01 T02380194  RH  076%=      5-min Rain = 0
KPD4 251653Z 20010KT 24/19 A30 RMK A01 T02390194  RH  076%=      5-min Rain = 0
KPD4 251654Z 22011KT 24/20 A30 RMK A01 T02420195  RH  075%=      5-min Rain = 0
KPD4 251655Z 21012KT 24/19 A30 RMK A01 T02430194  RH  074%=      5-min Rain = 0
KPD4 251656Z 21013G19KT 24/19 A30 RMK A01 T02430193  RH  074%=      5-min Rain = 0
KPD4 251657Z 20016KT 24/19 A30 RMK A01 T02440193  RH  073%=      5-min Rain = 0
KPD4 251658Z 21014KT 25/19 A30 RMK A01 T02460192  RH  072%=      5-min Rain = 0
KPD4 251659Z 21012KT 25/19 A30 RMK A01 T02470194  RH  072%=      5-min Rain = 0
KPD4 251700Z 20015KT 25/19 A30 RMK A01 T02480194  RH  072%=      5-min Rain = 0
KPD4 251701Z 20013KT 25/20 A30 RMK A01 T02500195  RH  071%=      5-min Rain = 0
KPD4 251702Z 21013KT 25/19 A30 RMK A01 T02520194  RH  070%=      5-min Rain = 0
KPD4 251703Z 20012KT 25/20 A30 RMK A01 T02520195  RH  070%=      5-min Rain = 0
KPD4 251704Z 21014KT 25/19 A30 RMK A01 T02530193  RH  069%=      5-min Rain = 0
KPD4 251705Z 21014KT 25/19 A30 RMK A01 T02530192  RH  069%=      5-min Rain = 0
KPD4 251706Z 22011KT 25/20 A30 RMK A01 T02530197  RH  071%=      5-min Rain = 0
KPD4 251707Z 22015KT 26/20 A2999 RMK A01 T02560196  RH  069%=      5-min Rain = 0
KPD4 251708Z 20013KT 26/20 A30 RMK A01 T02590197  RH  069%=      5-min Rain = 0
KPD4 251709Z 19013KT 26/19 A30 RMK A01 T02610194  RH  067%=      5-min Rain = 0
KPD4 251710Z 20012KT 26/19 A30 RMK A01 T02580192  RH  067%=      5-min Rain = 0
KPD4 251711Z 21014KT 25/19 A2999 RMK A01 T02540193  RH  069%=      5-min Rain = 0
KPD4 251712Z 20013G18KT 25/19 A30 RMK A01 T02540194  RH  069%=      5-min Rain = 0
KPD4 251713Z 19016KT 26/19 A2999 RMK A01 T02560192  RH  068%=      5-min Rain = 0
KPD4 251714Z 19012G17KT 26/19 A2999 RMK A01 T02570194  RH  068%=      5-min Rain = 0
KPD4 251715Z 19016KT 26/19 A2999 RMK A01 T02590194  RH  067%=      5-min Rain = 0
KPD4 251716Z 19014KT 26/19 A2999 RMK A01 T02610194  RH  067%=      5-min Rain = 0
KPD4 251717Z 20014KT 26/20 A2999 RMK A01 T02630195  RH  066%=      5-min Rain = 0
KPD4 251718Z 20014KT 26/20 A2999 RMK A01 T02630195  RH  066%=      5-min Rain = 0
KPD4 251719Z 22016KT 26/19 A2999 RMK A01 T02620193  RH  066%=      5-min Rain = 0
KPD4 251720Z 21012KT 26/19 A2999 RMK A01 T02590192  RH  067%=      5-min Rain = 0
KPD4 251721Z 22010KT 26/19 A2999 RMK A01 T02580192  RH  067%=      5-min Rain = 0
KPD4 251722Z 21009KT 26/20 A2999 RMK A01 T02570195  RH  069%=      5-min Rain = 0
KPD4 251723Z 20014KT 26/20 A2999 RMK A01 T02590195  RH  068%=      5-min Rain = 0
KPD4 251724Z 19014KT 26/19 A2999 RMK A01 T02610193  RH  066%=      5-min Rain = 0
KPD4 251725Z 20015KT 26/20 A2999 RMK A01 T02630196  RH  067%=      5-min Rain = 0
KPD4 251726Z 20011KT 26/20 A2999 RMK A01 T02620195  RH  066%=      5-min Rain = 0
KPD4 251727Z 20013KT 26/19 A2999 RMK A01 T02610193  RH  066%=      5-min Rain = 0
KPD4 251728Z 18012KT 26/19 A2999 RMK A01 T02580192  RH  067%=      5-min Rain = 0
KPD4 251729Z 19015KT 26/19 A2999 RMK A01 T02570193  RH  068%=      5-min Rain = 0
KPD4 251730Z 20014KT 26/19 A2999 RMK A01 T02570192  RH  067%=      5-min Rain = 0
KPD4 251731Z 21012KT 26/19 A2999 RMK A01 T02590194  RH  067%=      5-min Rain = 0
KPD4 251732Z 21010KT 26/19 A2999 RMK A01 T02600194  RH  067%=      5-min Rain = 0
KPD4 251733Z 20013KT 26/20 A2999 RMK A01 T02600195  RH  067%=      5-min Rain = 0
KPD4 251734Z 20013KT 26/20 A2999 RMK A01 T02610198  RH  068%=      5-min Rain = 0
KPD4 251735Z 19014KT 26/19 A2999 RMK A01 T02640193  RH  065%=      5-min Rain = 0
KPD4 251736Z 19014KT 26/19 A2999 RMK A01 T02620191  RH  065%=      5-min Rain = 0
KPD4 251737Z 20012KT 26/19 A2999 RMK A01 T02600191  RH  065%=      5-min Rain = 0
KPD4 251738Z 20013KT 26/19 A2999 RMK A01 T02610193  RH  066%=      5-min Rain = 0
KPD4 251739Z 21013KT 26/19 A2999 RMK A01 T02640194  RH  065%=      5-min Rain = 0
KPD4 251740Z 21014KT 27/19 A2999 RMK A01 T02650192  RH  064%=      5-min Rain = 0
KPD4 251741Z 21011KT 26/19 A2999 RMK A01 T02630191  RH  065%=      5-min Rain = 0
KPD4 251742Z 20011KT 26/19 A2999 RMK A01 T02620192  RH  065%=      5-min Rain = 0
KPD4 251743Z 22013KT 27/20 A2999 RMK A01 T02660197  RH  066%=      5-min Rain = 0
KPD4 251744Z 22013KT 27/19 A2999 RMK A01 T02680192  RH  063%=      5-min Rain = 0
KPD4 251745Z 22011KT 27/19 A2999 RMK A01 T02680193  RH  064%=      5-min Rain = 0
KPD4 251746Z 20010G15KT 27/20 A2999 RMK A01 T02700200  RH  066%=      5-min Rain = 0
KPD4 251747Z 21013G18KT 27/19 A2999 RMK A01 T02730194  RH  062%=      5-min Rain = 0
KPD4 251748Z 21013KT 27/19 A2999 RMK A01 T02710194  RH  063%=      5-min Rain = 0
KPD4 251749Z 20013KT 27/19 A2999 RMK A01 T02720194  RH  062%=      5-min Rain = 0
KPD4 251750Z 19011KT 27/19 A2999 RMK A01 T02710193  RH  062%=      5-min Rain = 0
KPD4 251751Z 19013KT 27/19 A2999 RMK A01 T02700193  RH  063%=      5-min Rain = 0
KPD4 251752Z 20011KT 27/19 A2998 RMK A01 T02700192  RH  062%=      5-min Rain = 0
KPD4 251753Z 19009KT 27/19 A2998 RMK A01 T02700194  RH  063%=      5-min Rain = 0
KPD4 251754Z 19007KT 27/20 A2998 RMK A01 T02710198  RH  064%=      5-min Rain = 0
KPD4 251755Z 21012KT 28/20 A2998 RMK A01 T02750199  RH  063%=      5-min Rain = 0
KPD4 251756Z 22014KT 28/20 A2998 RMK A01 T02770195  RH  061%=      5-min Rain = 0
KPD4 251757Z 21014KT 28/19 A2998 RMK A01 T02760192  RH  060%=      5-min Rain = 0
KPD4 251758Z 20014KT 27/19 A2998 RMK A01 T02730188  RH  060%=      5-min Rain = 0
KPD4 251759Z 20013KT 27/19 A2998 RMK A01 T02690189  RH  061%=      5-min Rain = 0
KPD4 251800Z 21013KT 27/19 A2998 RMK A01 T02690189  RH  062%=      5-min Rain = 0
KPD4 251801Z 21012KT 27/19 A2998 RMK A01 T02690190  RH  062%=      5-min Rain = 0
KPD4 251802Z 18010KT 27/19 A2998 RMK A01 T02700194  RH  063%=      5-min Rain = 0
KPD4 251803Z 19013KT 27/19 A2998 RMK A01 T02720190  RH  061%=      5-min Rain = 0
KPD4 251804Z 19014KT 27/19 A2998 RMK A01 T02740192  RH  061%=      5-min Rain = 0
KPD4 251805Z 18012KT 28/20 A2998 RMK A01 T02780196  RH  061%=      5-min Rain = 0
KPD4 251806Z 17015KT 28/20 A2998 RMK A01 T02820197  RH  060%=      5-min Rain = 0
KPD4 251807Z 18015KT 28/19 A2998 RMK A01 T02820193  RH  059%=      5-min Rain = 0
KPD4 251808Z 19014KT 28/19 A2998 RMK A01 T02810193  RH  059%=      5-min Rain = 0
KPD4 251809Z 19014KT 28/19 A2998 RMK A01 T02790192  RH  059%=      5-min Rain = 0
KPD4 251810Z 19012KT 28/19 A2998 RMK A01 T02760192  RH  060%=      5-min Rain = 0
KPD4 251811Z 20012KT 27/19 A2998 RMK A01 T02740194  RH  062%=      5-min Rain = 0
KPD4 251812Z 19011KT 27/20 A2998 RMK A01 T02740195  RH  062%=      5-min Rain = 0
KPD4 251813Z 19012KT 27/20 A2998 RMK A01 T02740198  RH  063%=      5-min Rain = 0
KPD4 251814Z 18012KT 27/19 A2998 RMK A01 T02710194  RH  063%=      5-min Rain = 0
KPD4 251815Z 17011G16KT 27/20 A2998 RMK A01 T02700198  RH  065%=      5-min Rain = 0
KPD4 251816Z 17017KT 27/20 A2998 RMK A01 T02720198  RH  064%=      5-min Rain = 0
KPD4 251817Z 19013KT 27/20 A2998 RMK A01 T02730196  RH  063%=      5-min Rain = 0
KPD4 251818Z 20013KT 27/20 A2998 RMK A01 T02740199  RH  064%=      5-min Rain = 0
KPD4 251819Z 20013KT 28/20 A2998 RMK A01 T02750198  RH  063%=      5-min Rain = 0
KPD4 251820Z 19013KT 27/20 A2998 RMK A01 T02720195  RH  063%=      5-min Rain = 0
KPD4 251821Z 17015KT 27/20 A2998 RMK A01 T02700196  RH  064%=      5-min Rain = 0
KPD4 251822Z 17012KT 27/19 A2998 RMK A01 T02680193  RH  063%=      5-min Rain = 0
KPD4 251823Z 17011KT 27/19 A2998 RMK A01 T02650193  RH  065%=      5-min Rain = 0
KPD4 251824Z 19010KT 27/20 A2997 RMK A01 T02650195  RH  066%=      5-min Rain = 0
KPD4 251825Z 17009KT 27/20 A2997 RMK A01 T02650198  RH  067%=      5-min Rain = 0
KPD4 251826Z 18011KT 27/20 A2997 RMK A01 T02670200  RH  066%=      5-min Rain = 0
KPD4 251827Z 19013G19KT 27/20 A2997 RMK A01 T02690196  RH  065%=      5-min Rain = 0
KPD4 251828Z 18012KT 27/20 A2997 RMK A01 T02700198  RH  065%=      5-min Rain = 0
KPD4 251829Z 17012KT 27/20 A2997 RMK A01 T02720196  RH  063%=      5-min Rain = 0
KPD4 251830Z 19010KT 27/19 A2997 RMK A01 T02700193  RH  063%=      5-min Rain = 0
KPD4 251831Z 19008KT 27/19 A2997 RMK A01 T02680194  RH  064%=      5-min Rain = 0
KPD4 251832Z 18013KT 27/20 A2996 RMK A01 T02680195  RH  064%=      5-min Rain = 0
KPD4 251833Z 18012KT 27/19 A2996 RMK A01 T02690194  RH  063%=      5-min Rain = 0
KPD4 251834Z 17011KT 27/20 A2996 RMK A01 T02720199  RH  064%=      5-min Rain = 0
KPD4 251835Z 18016KT 28/19 A2996 RMK A01 T02750193  RH  061%=      5-min Rain = 0
KPD4 251836Z 20013KT 28/19 A2996 RMK A01 T02750192  RH  060%=      5-min Rain = 0
KPD4 251837Z 20014KT 28/19 A2996 RMK A01 T02760191  RH  060%=      5-min Rain = 0
KPD4 251838Z 21013KT 27/19 A2996 RMK A01 T02730188  RH  060%=      5-min Rain = 0
KPD4 251839Z 19010KT 27/19 A2996 RMK A01 T02710190  RH  061%=      5-min Rain = 0
KPD4 251840Z 21010KT 27/20 A2996 RMK A01 T02730196  RH  063%=      5-min Rain = 0
KPD4 251841Z 20012KT 28/19 A2996 RMK A01 T02750194  RH  061%=      5-min Rain = 0
KPD4 251842Z 20010KT 28/20 A2996 RMK A01 T02760195  RH  061%=      5-min Rain = 0
KPD4 251843Z 18009G14KT 27/19 A2996 RMK A01 T02740194  RH  062%=      5-min Rain = 0
KPD4 251844Z 17013KT 27/19 A2996 RMK A01 T02710194  RH  063%=      5-min Rain = 0
KPD4 251845Z 17011KT 27/19 A2996 RMK A01 T02700193  RH  063%=      5-min Rain = 0
KPD4 251846Z 17010KT 27/20 A2996 RMK A01 T02710198  RH  064%=      5-min Rain = 0
KPD4 251847Z 15012KT 28/20 A2996 RMK A01 T02750199  RH  063%=      5-min Rain = 0
KPD4 251848Z 15011KT 28/20 A2996 RMK A01 T02750196  RH  062%=      5-min Rain = 0
KPD4 251849Z 16007KT 27/20 A2996 RMK A01 T02740197  RH  063%=      5-min Rain = 0
KPD4 251850Z 16008KT 27/19 A2996 RMK A01 T02720194  RH  062%=      5-min Rain = 0
KPD4 251851Z 18010KT 27/19 A2996 RMK A01 T02690192  RH  063%=      5-min Rain = 0
KPD4 251852Z 18011G16KT 27/19 A2996 RMK A01 T02650190  RH  064%=      5-min Rain = 0
KPD4 251853Z 17013KT 26/19 A2996 RMK A01 T02640193  RH  065%=      5-min Rain = 0
KPD4 251854Z 17015KT 27/20 A2996 RMK A01 T02670196  RH  065%=      5-min Rain = 0
KPD4 251855Z 20013KT 27/19 A2996 RMK A01 T02690192  RH  063%=      5-min Rain = 0
KPD4 251856Z 19009KT 27/19 A2996 RMK A01 T02670191  RH  063%=      5-min Rain = 0
KPD4 251857Z 19008G15KT 27/19 A2996 RMK A01 T02650193  RH  064%=      5-min Rain = 0
KPD4 251858Z 16011G17KT 27/20 A2996 RMK A01 T02650196  RH  066%=      5-min Rain = 0
KPD4 251859Z 17013KT 27/20 A2996 RMK A01 T02660195  RH  065%=      5-min Rain = 0
KPD4 251900Z 18015KT 27/19 A2996 RMK A01 T02670192  RH  064%=      5-min Rain = 0
KPD4 251901Z 18014KT 27/19 A2996 RMK A01 T02670190  RH  063%=      5-min Rain = 0
KPD4 251902Z 19012KT 27/19 A2996 RMK A01 T02670193  RH  064%=      5-min Rain = 0
KPD4 251903Z 19013KT 27/20 A2996 RMK A01 T02720196  RH  063%=      5-min Rain = 0
KPD4 251904Z 19013KT 27/19 A2996 RMK A01 T02730193  RH  061%=      5-min Rain = 0
KPD4 251905Z 18009KT 27/19 A2996 RMK A01 T02720191  RH  061%=      5-min Rain = 0
KPD4 251906Z 20009KT 27/19 A2995 RMK A01 T02710193  RH  062%=      5-min Rain = 0
KPD4 251907Z 18011KT 27/19 A2995 RMK A01 T02710193  RH  063%=      5-min Rain = 0
KPD4 251908Z 18012KT 27/19 A2995 RMK A01 T02710194  RH  063%=      5-min Rain = 0
KPD4 251909Z 18011KT 27/20 A2995 RMK A01 T02730195  RH  062%=      5-min Rain = 0
KPD4 251910Z 18008G13KT 28/20 A2995 RMK A01 T02750197  RH  062%=      5-min Rain = 0
KPD4 251911Z 19010KT 28/19 A2995 RMK A01 T02750194  RH  061%=      5-min Rain = 0
KPD4 251912Z 19009KT 27/20 A2995 RMK A01 T02740195  RH  062%=      5-min Rain = 0
KPD4 251913Z 17007KT 27/20 A2995 RMK A01 T02720197  RH  063%=      5-min Rain = 0
KPD4 251914Z 16010KT 27/20 A2995 RMK A01 T02720195  RH  063%=      5-min Rain = 0
KPD4 251915Z 17013KT 27/20 A2995 RMK A01 T02730199  RH  064%=      5-min Rain = 0
KPD4 251916Z 18013KT 28/20 A2995 RMK A01 T02750197  RH  062%=      5-min Rain = 0
KPD4 251917Z 18014KT 28/20 A2995 RMK A01 T02780200  RH  062%=      5-min Rain = 0
KPD4 251918Z 18013KT 28/19 A2994 RMK A01 T02770194  RH  061%=      5-min Rain = 0
KPD4 251919Z 15012KT 27/20 A2995 RMK A01 T02730195  RH  062%=      5-min Rain = 0
KPD4 251920Z 16013KT 27/20 A2994 RMK A01 T02720197  RH  063%=      5-min Rain = 0
KPD4 251921Z 17014KT 27/19 A2994 RMK A01 T02720194  RH  062%=      5-min Rain = 0
KPD4 251922Z 17012KT 27/19 A2994 RMK A01 T02690191  RH  062%=      5-min Rain = 0
KPD4 251923Z 15011KT 27/19 A2994 RMK A01 T02660194  RH  064%=      5-min Rain = 0
KPD4 251924Z 15008KT 27/19 A2994 RMK A01 T02650194  RH  065%=      5-min Rain = 0
KPD4 251925Z 15012KT 27/20 A2994 RMK A01 T02660195  RH  065%=      5-min Rain = 0
KPD4 251926Z 15012KT 27/19 A2994 RMK A01 T02660190  RH  063%=      5-min Rain = 0
KPD4 251927Z 16012KT 27/19 A2994 RMK A01 T02650191  RH  064%=      5-min Rain = 0
KPD4 251928Z 17011KT 26/19 A2994 RMK A01 T02640192  RH  065%=      5-min Rain = 0
KPD4 251929Z 18010KT 26/19 A2994 RMK A01 T02640187  RH  062%=      5-min Rain = 0
KPD4 251930Z 16013KT 27/19 A2994 RMK A01 T02650191  RH  064%=      5-min Rain = 0
KPD4 251931Z 17013KT 27/19 A2994 RMK A01 T02660192  RH  064%=      5-min Rain = 0
KPD4 251932Z 17015KT 27/19 A2994 RMK A01 T02660191  RH  063%=      5-min Rain = 0
KPD4 251933Z 16013KT 27/19 A2994 RMK A01 T02650189  RH  063%=      5-min Rain = 0
KPD4 251934Z 17013KT 26/19 A2994 RMK A01 T02640190  RH  064%=      5-min Rain = 0
KPD4 251935Z 16014KT 26/19 A2994 RMK A01 T02630190  RH  064%=      5-min Rain = 0
KPD4 251936Z 16012KT 26/19 A2994 RMK A01 T02620189  RH  064%=      5-min Rain = 0
KPD4 251937Z 16011KT 26/19 A2994 RMK A01 T02610190  RH  065%=      5-min Rain = 0
KPD4 251938Z 16010KT 26/19 A2994 RMK A01 T02610193  RH  066%=      5-min Rain = 0
KPD4 251939Z 16012KT 26/19 A2994 RMK A01 T02610194  RH  067%=      5-min Rain = 0
KPD4 251940Z 16014KT 26/19 A2994 RMK A01 T02610191  RH  066%=      5-min Rain = 0
KPD4 251941Z 17012KT 26/19 A2994 RMK A01 T02600193  RH  066%=      5-min Rain = 0
KPD4 251942Z 17015KT 26/19 A2994 RMK A01 T02590194  RH  067%=      5-min Rain = 0
KPD4 251943Z 16014KT 26/19 A2994 RMK A01 T02580194  RH  068%=      5-min Rain = 0
KPD4 251944Z 16014KT 26/20 A2995 RMK A01 T02570196  RH  069%=      5-min Rain = 0
KPD4 251945Z 16015KT 26/20 A2995 RMK A01 T02550196  RH  070%=      5-min Rain = 0
KPD4 251946Z 16015KT 25/20 A2995 RMK A01 T02530196  RH  071%=      5-min Rain = 0
KPD4 251947Z 16017G22KT 25/20 A2995 RMK A01 T02520197  RH  072%=      5-min Rain = 0
KPD4 251948Z 16015KT 25/20 A2995 RMK A01 T02510197  RH  072%=      5-min Rain = 0
KPD4 251949Z 16012KT 25/20 A2995 RMK A01 T02500198  RH  073%=      5-min Rain = 0
KPD4 251950Z 16013KT 25/20 A2995 RMK A01 T02490199  RH  073%=      5-min Rain = 0
KPD4 251951Z 16015KT 25/20 A2995 RMK A01 T02490197  RH  073%=      5-min Rain = 0
KPD4 251952Z 17014KT 25/20 A2995 RMK A01 T02480197  RH  073%=      5-min Rain = 0
KPD4 251953Z 16013KT 25/20 A2995 RMK A01 T02470198  RH  074%=      5-min Rain = 0
KPD4 251954Z 15012KT 25/20 A2995 RMK A01 T02470198  RH  074%=      5-min Rain = 0
KPD4 251955Z 16011KT 25/20 A2995 RMK A01 T02460198  RH  074%=      5-min Rain = 0
KPD4 251956Z 16011KT 25/20 A2995 RMK A01 T02460198  RH  074%=      5-min Rain = 0
KPD4 251957Z 16011KT 25/20 A2995 RMK A01 T02450197  RH  075%=      5-min Rain = 0
KPD4 251958Z 16010KT 24/20 A2995 RMK A01 T02440197  RH  075%=      5-min Rain = 0
KPD4 251959Z 16009KT 24/20 A2995 RMK A01 T02440197  RH  075%=      5-min Rain = 0
KPD4 252000Z 16009KT 24/20 A2995 RMK A01 T02430197  RH  075%=      5-min Rain = 0
KPD4 252001Z 15008KT 24/20 A2994 RMK A01 T02420197  RH  076%=      5-min Rain = 0
KPD4 252002Z 15008KT 24/20 A2994 RMK A01 T02410199  RH  077%=      5-min Rain = 0
KPD4 252003Z 15009KT 24/20 A2994 RMK A01 T02390199  RH  078%=      5-min Rain = 0
KPD4 252004Z 14008KT 24/20 A2994 RMK A01 T02370199  RH  079%=      5-min Rain = 0
KPD4 252005Z 13006KT 24/20 A2994 RMK A01 T02360200  RH  080%=      5-min Rain = 0
KPD4 252006Z 13007KT 24/20 A2993 RMK A01 T02350200  RH  081%=      5-min Rain = 0
KPD4 252007Z 13007KT 23/20 A2994 RMK A01 T02340199  RH  081%=      5-min Rain = 0
KPD4 252008Z 13008KT 23/20 A2994 RMK A01 T02340199  RH  081%=      5-min Rain = 0
KPD4 252009Z 15009KT 23/20 A2994 RMK A01 T02340198  RH  080%=      5-min Rain = 0
KPD4 252010Z 14009KT 23/20 A2994 RMK A01 T02340198  RH  080%=      5-min Rain = 0
KPD4 252011Z 13007KT 23/20 A2993 RMK A01 T02340198  RH  080%=      5-min Rain = 0
KPD4 252012Z 14006KT 23/20 A2993 RMK A01 T02340198  RH  080%=      5-min Rain = 0
KPD4 252013Z 15008KT 23/20 A2994 RMK A01 T02340198  RH  080%=      5-min Rain = 0
KPD4 252014Z 16010KT 23/20 A2994 RMK A01 T02330197  RH  080%=      5-min Rain = 0
KPD4 252015Z 16009KT 23/20 A2994 RMK A01 T02330196  RH  080%=      5-min Rain = 0
KPD4 252016Z 16009KT 23/20 A2994 RMK A01 T02330196  RH  080%=      5-min Rain = 0
KPD4 252017Z 16009KT 23/20 A2994 RMK A01 T02330196  RH  080%=      5-min Rain = 0
KPD4 252018Z 17009KT 23/20 A2995 RMK A01 T02330196  RH  080%=      5-min Rain = 0
KPD4 252019Z 17008KT 23/20 A2995 RMK A01 T02330196  RH  080%=      5-min Rain = 0
KPD4 252020Z 17008KT 23/20 A2995 RMK A01 T02330196  RH  080%=      5-min Rain = 0
KPD4 252021Z 18007KT 23/20 A2995 RMK A01 T02330197  RH  080%=      5-min Rain = 0
KPD4 252022Z 17007KT 23/20 A2995 RMK A01 T02330198  RH  081%=      5-min Rain = 0
KPD4 252023Z 18008KT 23/20 A2995 RMK A01 T02320198  RH  081%=      5-min Rain = 0
KPD4 252024Z 17007KT 23/20 A2995 RMK A01 T02320197  RH  081%=      5-min Rain = 0
KPD4 252025Z 18007KT 23/20 A2995 RMK A01 T02320198  RH  081%=      5-min Rain = 0
KPD4 252026Z 17007KT 23/20 A2995 RMK A01 T02320197  RH  081%=      5-min Rain = 0
KPD4 252027Z 16006KT 23/20 A2995 RMK A01 T02320197  RH  081%=      5-min Rain = 0
KPD4 252028Z 15007KT 23/20 A2994 RMK A01 T02320197  RH  081%=      5-min Rain = 0
KPD4 252029Z 16007KT 23/20 A2994 RMK A01 T02320197  RH  081%=      5-min Rain = 0
KPD4 252030Z 16007KT 23/20 A2995 RMK A01 T02320197  RH  080%=      5-min Rain = 0
KPD4 252031Z 16007KT 23/20 A2995 RMK A01 T02320196  RH  080%=      5-min Rain = 0
KPD4 252032Z 16008KT 23/20 A2995 RMK A01 T02320197  RH  081%=      5-min Rain = 0
KPD4 252033Z 16008KT 23/20 A2995 RMK A01 T02320197  RH  081%=      5-min Rain = 0
KPD4 252034Z 16007KT 23/20 A2995 RMK A01 T02320197  RH  081%=      5-min Rain = 0
KPD4 252035Z 16007KT 23/20 A2995 RMK A01 T02320197  RH  081%=      5-min Rain = 0
KPD4 252036Z 16008KT 23/20 A2995 RMK A01 T02310197  RH  081%=      5-min Rain = 0
KPD4 252037Z 16007KT 23/20 A2995 RMK A01 T02310197  RH  081%=      5-min Rain = 0
KPD4 252038Z 17007KT 23/20 A2994 RMK A01 T02320197  RH  081%=      5-min Rain = 0
KPD4 252039Z 17009KT 23/20 A2994 RMK A01 T02310197  RH  081%=      5-min Rain = 0
KPD4 252040Z 17010KT 23/20 A2994 RMK A01 T02310196  RH  080%=      5-min Rain = 0
KPD4 252041Z 17011KT 23/20 A2994 RMK A01 T02310195  RH  080%=      5-min Rain = 0
KPD4 252042Z 17009KT 23/20 A2994 RMK A01 T02320196  RH  080%=      5-min Rain = 0
KPD4 252043Z 17008KT 23/20 A2995 RMK A01 T02320197  RH  081%=      5-min Rain = 0
KPD4 252044Z 17008KT 23/20 A2995 RMK A01 T02310197  RH  081%=      5-min Rain = 0
KPD4 252045Z 18008KT 23/20 A2995 RMK A01 T02310197  RH  081%=      5-min Rain = 0
KPD4 252046Z 17008KT 23/20 A2995 RMK A01 T02300197  RH  081%=      5-min Rain = 0
KPD4 252047Z 18007KT 23/20 A2995 RMK A01 T02300197  RH  082%=      5-min Rain = 0
KPD4 252048Z 18008KT 23/20 A2995 RMK A01 T02290197  RH  082%=      5-min Rain = 0
KPD4 252049Z 17007KT 23/20 A2995 RMK A01 T02290198  RH  083%=      5-min Rain = 0
KPD4 252050Z 17008KT 23/20 A2995 RMK A01 T02280198  RH  083%=      5-min Rain = 0
KPD4 252051Z 15007KT 23/20 A2995 RMK A01 T02280197  RH  083%=      5-min Rain = 0
KPD4 252052Z 14007KT 23/20 A2995 RMK A01 T02270198  RH  084%=      5-min Rain = 0
KPD4 252053Z 13008KT 23/20 A2994 RMK A01 T02260198  RH  084%=      5-min Rain = 0
KPD4 252054Z 13009KT 23/20 A2994 RMK A01 T02250198  RH  085%=      5-min Rain = 0
KPD4 252055Z 14010KT 23/20 A2994 RMK A01 T02250198  RH  085%=      5-min Rain = 0
KPD4 252056Z 14012KT 22/20 A2995 RMK A01 T02240199  RH  086%=      5-min Rain = 0
KPD4 252057Z 15014KT 22/20 A2995 RMK A01 T02220199  RH  087%=      5-min Rain = 0
KPD4 252058Z 15018KT 22/20 A2994 RMK A01 T02200199  RH  088%=      5-min Rain = 0
KPD4 252059Z 15019KT 22/20 A2994 RMK A01 T02190195  RH  086%=      5-min Rain = 0
KPD4 252100Z 15017G24KT 22/15 A2995 RMK A01 T02220150  RH  065%=      5-min Rain = 0.01
KPD4 252101Z 14016KT 23/17 A2995 RMK A01 T02300173  RH  071%=      5-min Rain = 0
KPD4 252102Z 17018KT 23/19 A2995 RMK A01 T02270185  RH  077%=      5-min Rain = 0
KPD4 252103Z 18018KT 22/20 A2996 RMK A01 T02230195  RH  084%=      5-min Rain = 0.01
KPD4 252104Z 18017KT 22/20 A2996 RMK A01 T02210197  RH  086%=      5-min Rain = 0
KPD4 252105Z 18015KT 22/20 A2996 RMK A01 T02200196  RH  086%=      5-min Rain = 0
KPD4 252106Z 19017KT 22/20 A2996 RMK A01 T02200197  RH  087%=      5-min Rain = 0.01
KPD4 252107Z 19013KT 22/20 A2996 RMK A01 T02200197  RH  087%=      5-min Rain = 0
KPD4 252108Z 20009KT 22/20 A2996 RMK A01 T02210197  RH  086%=      5-min Rain = 0
KPD4 252109Z 21009KT 22/20 A2996 RMK A01 T02210198  RH  087%=      5-min Rain = 0.01
KPD4 252110Z 21011KT 22/20 A2996 RMK A01 T02200200  RH  088%=      5-min Rain = 0
KPD4 252111Z 21015KT 22/20 A2997 RMK A01 T02190201  RH  089%=      5-min Rain = 0.01
KPD4 252112Z 21023G28KT 22/20 A2999 RMK A01 T02170196  RH  088%=      5-min Rain = 0.01
KPD4 252113Z 21030G35KT 21/18 A2999 RMK A01 T02110178  RH  081%=      5-min Rain = 0.01
KPD4 252114Z 20035G48KT 20/16 A2999 RMK A01 T02000160  RH  078%=      5-min Rain = 0.01
KPD4 252115Z 20038G45KT 19/15 A3001 RMK A01 T01850147  RH  079%=      5-min Rain = 0.02
KPD4 252116Z 20035G44KT 17/15 A3002 RMK A01 T01700145  RH  086%=      5-min Rain = 0.02
KPD4 252117Z 19038G45KT 16/15 A3002 RMK A01 T01600145  RH  091%=      5-min Rain = 0.03
KPD4 252118Z 19039G45KT 15/14 A3002 RMK A01 T01540144  RH  094%=      5-min Rain = 0.03
KPD4 252119Z 19036G48KT 15/14 A3002 RMK A01 T01510144  RH  095%=      5-min Rain = 0.02
KPD4 252120Z 18039G45KT 15/14 A3003 RMK A01 T01490142  RH  096%=      5-min Rain = 0.02
KPD4 252121Z 18034G40KT 15/14 A3003 RMK A01 T01460140  RH  096%=      5-min Rain = 0.01
KPD4 252122Z 18033G42KT 15/14 A3004 RMK A01 T01450139  RH  096%=      5-min Rain = 0.01
KPD4 252123Z 19038G44KT 14/14 A3004 RMK A01 T01440139  RH  096%=      5-min Rain = 0.01
KPD4 252124Z 18036G43KT 14/14 A3004 RMK A01 T01440137  RH  096%=      5-min Rain = 0.02
KPD4 252125Z 18033G40KT 14/14 A3005 RMK A01 T01440138  RH  096%=      5-min Rain = 0.02
KPD4 252126Z 18031G36KT 14/14 A3005 RMK A01 T01430137  RH  096%=      5-min Rain = 0.02
KPD4 252127Z 18031KT 14/14 A3006 RMK A01 T01420136  RH  096%=      5-min Rain = 0.02
KPD4 252128Z 19026G31KT 14/14 A3006 RMK A01 T01410136  RH  096%=      5-min Rain = 0.02
KPD4 252129Z 19021G26KT 14/14 A3006 RMK A01 T01410135  RH  096%=      5-min Rain = 0.02
KPD4 252130Z 20019G25KT 14/13 A3006 RMK A01 T01400134  RH  096%=      5-min Rain = 0.03
KPD4 252131Z 22017KT 14/13 A3005 RMK A01 T01400134  RH  096%=      5-min Rain = 0.01
KPD4 252132Z 22017KT 14/14 A3005 RMK A01 T01400135  RH  097%=      5-min Rain = 0.02
KPD4 252133Z 23018KT 14/13 A3004 RMK A01 T01400134  RH  097%=      5-min Rain = 0.01
KPD4 252134Z 23016KT 14/14 A3004 RMK A01 T01400135  RH  096%=      5-min Rain = 0.01
KPD4 252135Z 23015KT 14/14 A3003 RMK A01 T01410135  RH  096%=      5-min Rain = 0.01
KPD4 252136Z 23016KT 14/14 A3003 RMK A01 T01410135  RH  096%=      5-min Rain = 0
KPD4 252137Z 23018KT 14/13 A3002 RMK A01 T01410134  RH  095%=      5-min Rain = 0.01
KPD4 252138Z 23018KT 14/13 A3002 RMK A01 T01420134  RH  094%=      5-min Rain = 0
KPD4 252139Z 22014KT 14/13 A3001 RMK A01 T01430133  RH  094%=      5-min Rain = 0
KPD4 252140Z 23017G22KT 14/13 A3001 RMK A01 T01440133  RH  093%=      5-min Rain = 0
KPD4 252141Z 23019KT 14/13 A3001 RMK A01 T01440133  RH  093%=      5-min Rain = 0
KPD4 252142Z 23018KT 15/13 A3001 RMK A01 T01450133  RH  092%=      5-min Rain = 0
KPD4 252143Z 23017KT 15/13 A3001 RMK A01 T01460133  RH  092%=      5-min Rain = 0
KPD4 252144Z 24014KT 15/13 A30 RMK A01 T01470133  RH  091%=      5-min Rain = 0
KPD4 252145Z 24014KT 15/13 A30 RMK A01 T01470134  RH  091%=      5-min Rain = 0
KPD4 252146Z 24013KT 15/13 A30 RMK A01 T01470133  RH  091%=      5-min Rain = 0.01
KPD4 252147Z 24013KT 15/13 A2999 RMK A01 T01480132  RH  091%=      5-min Rain = 0
KPD4 252148Z 25015KT 15/13 A2999 RMK A01 T01480132  RH  090%=      5-min Rain = 0
KPD4 252149Z 25014KT 15/13 A2999 RMK A01 T01480131  RH  089%=      5-min Rain = 0
KPD4 252150Z 25014KT 15/13 A2999 RMK A01 T01480131  RH  089%=      5-min Rain = 0
KPD4 252151Z 24014KT 15/13 A2999 RMK A01 T01490131  RH  089%=      5-min Rain = 0.01
KPD4 252152Z 24016KT 15/13 A2999 RMK A01 T01490131  RH  089%=      5-min Rain = 0
KPD4 252153Z 24014KT 15/13 A2999 RMK A01 T01490131  RH  089%=      5-min Rain = 0
KPD4 252154Z 24013KT 15/13 A2999 RMK A01 T01490131  RH  089%=      5-min Rain = 0.01
KPD4 252155Z 24013KT 15/13 A2999 RMK A01 T01500131  RH  088%=      5-min Rain = 0
KPD4 252156Z 25011KT 15/13 A2999 RMK A01 T01510131  RH  088%=      5-min Rain = 0
KPD4 252157Z 25011KT 15/13 A2999 RMK A01 T01510132  RH  089%=      5-min Rain = 0
KPD4 252158Z 24011KT 15/13 A2999 RMK A01 T01510132  RH  089%=      5-min Rain = 0.01
KPD4 252159Z 24010KT 15/13 A2999 RMK A01 T01520134  RH  089%=      5-min Rain = 0
KPD4 252200Z 24009KT 15/14 A2999 RMK A01 T01510135  RH  090%=      5-min Rain = 0
KPD4 252201Z 24008KT 15/14 A2999 RMK A01 T01520135  RH  090%=      5-min Rain = 0.01
KPD4 252202Z 23009KT 15/14 A30 RMK A01 T01510136  RH  090%=      5-min Rain = 0
KPD4 252203Z 22011KT 15/14 A30 RMK A01 T01510137  RH  091%=      5-min Rain = 0
KPD4 252204Z 22011KT 15/14 A3001 RMK A01 T01520136  RH  091%=      5-min Rain = 0
KPD4 252205Z 22011KT 15/14 A3001 RMK A01 T01520136  RH  090%=      5-min Rain = 0.01
KPD4 252206Z 21010KT 15/14 A3001 RMK A01 T01520137  RH  090%=      5-min Rain = 0
KPD4 252207Z 21009KT 15/14 A3001 RMK A01 T01520137  RH  090%=      5-min Rain = 0
KPD4 252208Z 20008KT 15/14 A30 RMK A01 T01520136  RH  090%=      5-min Rain = 0
KPD4 252209Z 20009KT 15/14 A30 RMK A01 T01520136  RH  090%=      5-min Rain = 0
KPD4 252210Z 19008KT 15/14 A30 RMK A01 T01520135  RH  089%=      5-min Rain = 0
KPD4 252211Z 18006KT 15/14 A2999 RMK A01 T01530136  RH  090%=      5-min Rain = 0.01
KPD4 252212Z 16006KT 15/14 A2998 RMK A01 T01520137  RH  091%=      5-min Rain = 0
KPD4 252213Z 14006KT 15/14 A2998 RMK A01 T01520139  RH  092%=      5-min Rain = 0
KPD4 252214Z 15006KT 15/14 A2997 RMK A01 T01510139  RH  093%=      5-min Rain = 0
KPD4 252215Z 14005KT 15/14 A2997 RMK A01 T01510141  RH  094%=      5-min Rain = 0
KPD4 252216Z 13004KT 15/14 A2996 RMK A01 T01500141  RH  094%=      5-min Rain = 0
KPD4 252217Z 12005KT 15/14 A2996 RMK A01 T01500141  RH  095%=      5-min Rain = 0
KPD4 252218Z 12006KT 15/14 A2995 RMK A01 T01500141  RH  095%=      5-min Rain = 0
KPD4 252219Z 12006KT 15/14 A2995 RMK A01 T01500140  RH  094%=      5-min Rain = 0
KPD4 252220Z 12007KT 15/14 A2995 RMK A01 T01500140  RH  094%=      5-min Rain = 0
KPD4 252221Z 12007KT 15/14 A2994 RMK A01 T01500139  RH  094%=      5-min Rain = 0
KPD4 252222Z 12007KT 15/14 A2994 RMK A01 T01500139  RH  094%=      5-min Rain = 0
KPD4 252223Z 11007KT 15/14 A2994 RMK A01 T01500139  RH  093%=      5-min Rain = 0
KPD4 252224Z 11006KT 15/14 A2993 RMK A01 T01500139  RH  093%=      5-min Rain = 0
KPD4 252225Z 12006KT 15/14 A2993 RMK A01 T01510139  RH  093%=      5-min Rain = 0
KPD4 252226Z 13006KT 15/14 A2993 RMK A01 T01510139  RH  093%=      5-min Rain = 0
KPD4 252227Z 12006KT 15/14 A2992 RMK A01 T01510138  RH  092%=      5-min Rain = 0
KPD4 252228Z 12006KT 15/14 A2992 RMK A01 T01520139  RH  092%=      5-min Rain = 0
KPD4 252229Z 12006KT 15/14 A2991 RMK A01 T01520138  RH  091%=      5-min Rain = 0
KPD4 252230Z 11005KT 15/14 A2991 RMK A01 T01530138  RH  091%=      5-min Rain = 0
KPD4 252231Z 11005KT 15/14 A2991 RMK A01 T01530140  RH  092%=      5-min Rain = 0
KPD4 252232Z 11005KT 15/14 A299 RMK A01 T01530140  RH  092%=      5-min Rain = 0
KPD4 252233Z 10004KT 15/14 A299 RMK A01 T01530140  RH  092%=      5-min Rain = 0
KPD4 252234Z 11004KT 15/14 A2991 RMK A01 T01540141  RH  092%=      5-min Rain = 0
KPD4 252235Z 12004KT 16/14 A2991 RMK A01 T01550141  RH  092%=      5-min Rain = 0
KPD4 252236Z 12006KT 16/14 A2991 RMK A01 T01560141  RH  091%=      5-min Rain = 0
KPD4 252237Z 12006KT 16/14 A2991 RMK A01 T01570139  RH  089%=      5-min Rain = 0
KPD4 252238Z 11005KT 16/14 A2991 RMK A01 T01580141  RH  090%=      5-min Rain = 0
KPD4 252239Z 12005KT 16/14 A2991 RMK A01 T01580143  RH  091%=      5-min Rain = 0
KPD4 252240Z 12006KT 16/14 A2991 RMK A01 T01590144  RH  091%=      5-min Rain = 0
KPD4 252241Z 12007KT 16/15 A2991 RMK A01 T01600145  RH  091%=      5-min Rain = 0
KPD4 252242Z 12007KT 16/15 A2991 RMK A01 T01600146  RH  091%=      5-min Rain = 0
KPD4 252243Z 12007KT 16/15 A299 RMK A01 T01610145  RH  091%=      5-min Rain = 0
KPD4 252244Z 11005KT 16/15 A2991 RMK A01 T01610148  RH  091%=      5-min Rain = 0
KPD4 252245Z 11005KT 16/15 A2991 RMK A01 T01620148  RH  091%=      5-min Rain = 0
KPD4 252246Z 11004KT 16/15 A2991 RMK A01 T01620146  RH  090%=      5-min Rain = 0
KPD4 252247Z 10004KT 16/15 A2991 RMK A01 T01640150  RH  091%=      5-min Rain = 0
KPD4 252248Z 10003KT 17/16 A2991 RMK A01 T01670155  RH  093%=      5-min Rain = 0
KPD4 252249Z 10003KT 17/15 A299 RMK A01 T01700154  RH  090%=      5-min Rain = 0
KPD4 252250Z 09004KT 17/15 A299 RMK A01 T01710151  RH  088%=      5-min Rain = 0
KPD4 252251Z 08004KT 17/15 A299 RMK A01 T01720149  RH  086%=      5-min Rain = 0
KPD4 252252Z 09003KT 17/15 A299 RMK A01 T01730150  RH  086%=      5-min Rain = 0
KPD4 252253Z 10004KT 18/16 A299 RMK A01 T01750157  RH  089%=      5-min Rain = 0
KPD4 252254Z 09004KT 18/16 A299 RMK A01 T01800164  RH  090%=      5-min Rain = 0
KPD4 252255Z 09005KT 18/16 A299 RMK A01 T01820158  RH  086%=      5-min Rain = 0
KPD4 252256Z 08005KT 18/15 A2991 RMK A01 T01830153  RH  082%=      5-min Rain = 0
KPD4 252257Z 07006KT 18/15 A299 RMK A01 T01830151  RH  081%=      5-min Rain = 0
KPD4 252258Z 07005KT 18/15 A299 RMK A01 T01840153  RH  082%=      5-min Rain = 0
KPD4 252259Z 08005KT 19/16 A2991 RMK A01 T01870161  RH  085%=      5-min Rain = 0
KPD4 252300Z 09007KT 19/16 A2991 RMK A01 T01880155  RH  081%=      5-min Rain = 0
KPD4 252301Z 09007KT 19/16 A2991 RMK A01 T01880155  RH  081%=      5-min Rain = 0
KPD4 252302Z 10008KT 19/16 A2991 RMK A01 T01890157  RH  082%=      5-min Rain = 0
KPD4 252303Z 09007KT 19/15 A2991 RMK A01 T01900153  RH  079%=      5-min Rain = 0
KPD4 252304Z 08006KT 19/15 A299 RMK A01 T01890151  RH  078%=      5-min Rain = 0
KPD4 252305Z 08005KT 19/16 A299 RMK A01 T01900155  RH  080%=      5-min Rain = 0
KPD4 252306Z 08006KT 19/16 A299 RMK A01 T01910157  RH  081%=      5-min Rain = 0
KPD4 252307Z 09007KT 19/15 A2991 RMK A01 T01920151  RH  077%=      5-min Rain = 0
KPD4 252308Z 08006KT 19/15 A2991 RMK A01 T01920154  RH  079%=      5-min Rain = 0
KPD4 252309Z 08007KT 19/15 A2991 RMK A01 T01890149  RH  077%=      5-min Rain = 0
KPD4 252310Z 09006KT 19/15 A2991 RMK A01 T01880149  RH  078%=      5-min Rain = 0
KPD4 252311Z 08007KT 19/15 A2991 RMK A01 T01870151  RH  079%=      5-min Rain = 0
KPD4 252312Z 09007KT 19/15 A2991 RMK A01 T01880152  RH  080%=      5-min Rain = 0
KPD4 252313Z 09006KT 19/15 A2991 RMK A01 T01890148  RH  077%=      5-min Rain = 0
KPD4 252314Z 09005KT 19/15 A2991 RMK A01 T01890153  RH  080%=      5-min Rain = 0
KPD4 252315Z 09006KT 19/15 A2991 RMK A01 T01900153  RH  079%=      5-min Rain = 0
KPD4 252316Z 10006KT 19/15 A2991 RMK A01 T01910152  RH  078%=      5-min Rain = 0
KPD4 252317Z 11007KT 19/15 A2991 RMK A01 T01920151  RH  077%=      5-min Rain = 0
KPD4 252318Z 10007KT 19/15 A2991 RMK A01 T01930153  RH  078%=      5-min Rain = 0
KPD4 252319Z 10007KT 19/15 A2991 RMK A01 T01930153  RH  078%=      5-min Rain = 0
KPD4 252320Z 11006KT 19/15 A2991 RMK A01 T01930152  RH  077%=      5-min Rain = 0
KPD4 252321Z 11006KT 19/16 A2991 RMK A01 T01930156  RH  079%=      5-min Rain = 0
KPD4 252322Z 11006KT 20/15 A299 RMK A01 T01960153  RH  076%=      5-min Rain = 0
KPD4 252323Z 10006KT 20/15 A299 RMK A01 T01970151  RH  075%=      5-min Rain = 0
KPD4 252324Z 10005KT 20/15 A299 RMK A01 T01980146  RH  072%=      5-min Rain = 0
KPD4 252325Z 10004KT 20/15 A299 RMK A01 T01970147  RH  073%=      5-min Rain = 0
KPD4 252326Z 11004KT 20/15 A299 RMK A01 T01980154  RH  076%=      5-min Rain = 0
KPD4 252327Z 11005KT 20/15 A299 RMK A01 T02000151  RH  073%=      5-min Rain = 0
KPD4 252328Z 12005KT 20/15 A299 RMK A01 T02000146  RH  071%=      5-min Rain = 0
KPD4 252329Z 12006KT 20/15 A2991 RMK A01 T02010151  RH  073%=      5-min Rain = 0
KPD4 252330Z 12007KT 20/14 A2991 RMK A01 T02020144  RH  070%=      5-min Rain = 0
KPD4 252331Z 12007KT 20/14 A2991 RMK A01 T02010144  RH  070%=      5-min Rain = 0
KPD4 252332Z 12007KT 20/15 A2991 RMK A01 T02010149  RH  072%=      5-min Rain = 0
KPD4 252333Z 12008KT 20/15 A2991 RMK A01 T02010149  RH  072%=      5-min Rain = 0
KPD4 252334Z 12009KT 20/15 A2992 RMK A01 T02010150  RH  072%=      5-min Rain = 0
KPD4 252335Z 12009KT 20/15 A2992 RMK A01 T02010148  RH  072%=      5-min Rain = 0
KPD4 252336Z 12009KT 20/15 A2992 RMK A01 T02010148  RH  072%=      5-min Rain = 0
KPD4 252337Z 11008KT 20/15 A2992 RMK A01 T02000148  RH  072%=      5-min Rain = 0
KPD4 252338Z 13007KT 20/15 A2992 RMK A01 T01990150  RH  073%=      5-min Rain = 0
KPD4 252339Z 13009KT 20/15 A2992 RMK A01 T01990150  RH  073%=      5-min Rain = 0
KPD4 252340Z 12008KT 20/15 A2992 RMK A01 T02000151  RH  073%=      5-min Rain = 0
KPD4 252341Z 12007KT 20/15 A2992 RMK A01 T01990151  RH  073%=      5-min Rain = 0
KPD4 252342Z 12006KT 20/15 A2992 RMK A01 T02000151  RH  074%=      5-min Rain = 0
KPD4 252343Z 13006KT 20/15 A2992 RMK A01 T02000149  RH  072%=      5-min Rain = 0
KPD4 252344Z 13007KT 20/15 A2991 RMK A01 T02000148  RH  072%=      5-min Rain = 0
KPD4 252345Z 12006KT 20/15 A2991 RMK A01 T02000146  RH  071%=      5-min Rain = 0
KPD4 252346Z 13006KT 20/15 A2991 RMK A01 T02000148  RH  072%=      5-min Rain = 0
KPD4 252347Z 13005KT 20/15 A2991 RMK A01 T02000148  RH  072%=      5-min Rain = 0
KPD4 252348Z 12005KT 20/15 A2991 RMK A01 T02010148  RH  072%=      5-min Rain = 0
KPD4 252349Z 13006KT 20/15 A2991 RMK A01 T02020145  RH  069%=      5-min Rain = 0
KPD4 252350Z 13007KT 20/14 A2991 RMK A01 T02010144  RH  070%=      5-min Rain = 0
KPD4 252351Z 13007KT 20/15 A2991 RMK A01 T02010146  RH  070%=      5-min Rain = 0
KPD4 252352Z 13008KT 20/15 A2991 RMK A01 T02020150  RH  072%=      5-min Rain = 0
KPD4 252353Z 12012KT 20/15 A2991 RMK A01 T02010148  RH  072%=      5-min Rain = 0
KPD4 252354Z 12011KT 20/14 A2991 RMK A01 T02010143  RH  069%=      5-min Rain = 0
KPD4 252355Z 13011KT 20/14 A2991 RMK A01 T01990141  RH  069%=      5-min Rain = 0
KPD4 252356Z 14010KT 20/14 A2991 RMK A01 T01990142  RH  070%=      5-min Rain = 0
KPD4 252357Z 13010KT 20/14 A299 RMK A01 T01990142  RH  070%=      5-min Rain = 0
KPD4 252358Z 13009KT 20/14 A299 RMK A01 T01990142  RH  070%=      5-min Rain = 0
KPD4 252359Z 14012KT 20/14 A299 RMK A01 T01990144  RH  071%=      5-min Rain = 0
KPD4 260000Z 13011KT 20/15 A299 RMK A01 T01980145  RH  071%=      5-min Rain = 0
KPD4 260001Z 14012KT 20/14 A299 RMK A01 T01980144  RH  071%=      5-min Rain = 0
KPD4 260002Z 14013KT 20/14 A299 RMK A01 T01980141  RH  070%=      5-min Rain = 0
KPD4 260003Z 14013KT 20/14 A299 RMK A01 T01970142  RH  071%=      5-min Rain = 0
KPD4 260004Z 14013KT 20/14 A2991 RMK A01 T01970144  RH  071%=      5-min Rain = 0
KPD4 260005Z 13014KT 20/14 A2991 RMK A01 T01970144  RH  071%=      5-min Rain = 0
KPD4 260006Z 14012KT 20/15 A2991 RMK A01 T01960146  RH  073%=      5-min Rain = 0
KPD4 260007Z 13014KT 20/14 A2991 RMK A01 T01960144  RH  072%=      5-min Rain = 0
KPD4 260008Z 14015KT 20/14 A2991 RMK A01 T01960143  RH  071%=      5-min Rain = 0
KPD4 260009Z 14014KT 20/14 A2991 RMK A01 T01960142  RH  071%=      5-min Rain = 0
KPD4 260010Z 14016KT 20/14 A2991 RMK A01 T01950143  RH  072%=      5-min Rain = 0
KPD4 260011Z 14015KT 20/14 A2991 RMK A01 T01950143  RH  072%=      5-min Rain = 0
KPD4 260012Z 14014KT 20/15 A2991 RMK A01 T01950145  RH  073%=      5-min Rain = 0
KPD4 260013Z 14013KT 20/15 A2992 RMK A01 T01950145  RH  073%=      5-min Rain = 0
KPD4 260014Z 14016KT 20/15 A2992 RMK A01 T01950145  RH  073%=      5-min Rain = 0
KPD4 260015Z 14014KT 19/14 A2992 RMK A01 T01940144  RH  072%=      5-min Rain = 0
KPD4 260016Z 14013KT 20/15 A2992 RMK A01 T01950145  RH  073%=      5-min Rain = 0
KPD4 260017Z 14014KT 19/15 A2992 RMK A01 T01940145  RH  073%=      5-min Rain = 0
KPD4 260018Z 13013KT 19/14 A2991 RMK A01 T01940144  RH  073%=      5-min Rain = 0
KPD4 260019Z 14010KT 19/15 A2991 RMK A01 T01940145  RH  073%=      5-min Rain = 0
KPD4 260020Z 14011KT 19/15 A2991 RMK A01 T01940145  RH  073%=      5-min Rain = 0
KPD4 260021Z 14010KT 19/15 A2991 RMK A01 T01940145  RH  073%=      5-min Rain = 0
KPD4 260022Z 15009KT 19/14 A2991 RMK A01 T01940142  RH  072%=      5-min Rain = 0
KPD4 260023Z 15008KT 20/14 A2991 RMK A01 T01950143  RH  072%=      5-min Rain = 0
KPD4 260024Z 14010KT 20/14 A2991 RMK A01 T01960141  RH  071%=      5-min Rain = 0
KPD4 260025Z 14010KT 20/14 A2991 RMK A01 T01960141  RH  071%=      5-min Rain = 0
KPD4 260026Z 14010KT 20/14 A2991 RMK A01 T01960141  RH  070%=      5-min Rain = 0
KPD4 260027Z 14008KT 20/14 A2991 RMK A01 T01960141  RH  070%=      5-min Rain = 0
KPD4 260028Z 13008KT 20/14 A2991 RMK A01 T01960144  RH  072%=      5-min Rain = 0
KPD4 260029Z 13008KT 20/15 A2991 RMK A01 T01960146  RH  073%=      5-min Rain = 0
KPD4 260030Z 12008KT 20/15 A2992 RMK A01 T01960146  RH  073%=      5-min Rain = 0
KPD4 260031Z 13008KT 20/15 A2992 RMK A01 T01950146  RH  073%=      5-min Rain = 0
KPD4 260032Z 13007KT 20/15 A2991 RMK A01 T01950146  RH  073%=      5-min Rain = 0
KPD4 260033Z 12006KT 19/15 A2991 RMK A01 T01940148  RH  075%=      5-min Rain = 0
KPD4 260034Z 13006KT 19/15 A2991 RMK A01 T01940150  RH  076%=      5-min Rain = 0
KPD4 260035Z 13008KT 19/15 A2992 RMK A01 T01940150  RH  075%=      5-min Rain = 0
KPD4 260036Z 13008KT 19/15 A2992 RMK A01 T01930149  RH  075%=      5-min Rain = 0
KPD4 260037Z 14007KT 19/15 A2992 RMK A01 T01920150  RH  077%=      5-min Rain = 0
KPD4 260038Z 15007KT 19/15 A2992 RMK A01 T01920149  RH  076%=      5-min Rain = 0
KPD4 260039Z 15008KT 19/15 A2992 RMK A01 T01920145  RH  074%=      5-min Rain = 0
KPD4 260040Z 14009KT 19/15 A2992 RMK A01 T01920146  RH  075%=      5-min Rain = 0
KPD4 260041Z 14006KT 19/15 A2992 RMK A01 T01910147  RH  076%=      5-min Rain = 0
KPD4 260042Z 13007KT 19/15 A2992 RMK A01 T01910149  RH  077%=      5-min Rain = 0
KPD4 260043Z 12009KT 19/15 A2992 RMK A01 T01910148  RH  076%=      5-min Rain = 0
KPD4 260044Z 12008KT 19/15 A2992 RMK A01 T01900148  RH  077%=      5-min Rain = 0
KPD4 260045Z 13008KT 19/15 A2992 RMK A01 T01890149  RH  077%=      5-min Rain = 0
KPD4 260046Z 13008KT 19/15 A2992 RMK A01 T01890149  RH  077%=      5-min Rain = 0
KPD4 260047Z 13008KT 19/15 A2991 RMK A01 T01890149  RH  078%=      5-min Rain = 0
KPD4 260048Z 13008KT 19/15 A2991 RMK A01 T01890148  RH  077%=      5-min Rain = 0
KPD4 260049Z 13008KT 19/15 A2992 RMK A01 T01880148  RH  078%=      5-min Rain = 0
KPD4 260050Z 13010KT 19/15 A2992 RMK A01 T01880149  RH  078%=      5-min Rain = 0
KPD4 260051Z 13011KT 19/15 A2992 RMK A01 T01870147  RH  078%=      5-min Rain = 0
KPD4 260052Z 13011KT 19/15 A2992 RMK A01 T01860147  RH  078%=      5-min Rain = 0
KPD4 260053Z 13009KT 19/15 A2992 RMK A01 T01850149  RH  080%=      5-min Rain = 0
KPD4 260054Z 13010KT 19/15 A2992 RMK A01 T01850151  RH  081%=      5-min Rain = 0
KPD4 260055Z 13011KT 19/15 A2992 RMK A01 T01850150  RH  080%=      5-min Rain = 0
KPD4 260056Z 13011KT 18/15 A2992 RMK A01 T01840148  RH  080%=      5-min Rain = 0
KPD4 260057Z 13009KT 18/15 A2992 RMK A01 T01830147  RH  079%=      5-min Rain = 0
KPD4 260058Z 13008KT 18/15 A2992 RMK A01 T01830147  RH  079%=      5-min Rain = 0
KPD4 260059Z 13009KT 18/15 A2992 RMK A01 T01830148  RH  080%=      5-min Rain = 0
KPD4 260100Z 13010KT 18/15 A2992 RMK A01 T01830149  RH  080%=      5-min Rain = 0
KPD4 260101Z 13008KT 18/15 A2992 RMK A01 T01830148  RH  080%=      5-min Rain = 0
KPD4 260102Z 13007KT 18/15 A2992 RMK A01 T01830150  RH  081%=      5-min Rain = 0
KPD4 260103Z 13007KT 18/15 A2992 RMK A01 T01830149  RH  081%=      5-min Rain = 0
KPD4 260104Z 13007KT 18/15 A2991 RMK A01 T01830150  RH  081%=      5-min Rain = 0
KPD4 260105Z 12007KT 18/15 A2991 RMK A01 T01820148  RH  081%=      5-min Rain = 0
KPD4 260106Z 13009KT 18/15 A2991 RMK A01 T01830147  RH  079%=      5-min Rain = 0
KPD4 260107Z 12009KT 18/14 A2991 RMK A01 T01830144  RH  078%=      5-min Rain = 0
KPD4 260108Z 13009KT 18/15 A2991 RMK A01 T01820146  RH  079%=      5-min Rain = 0
KPD4 260109Z 13008KT 18/15 A2991 RMK A01 T01820147  RH  080%=      5-min Rain = 0
KPD4 260110Z 13008KT 18/15 A2991 RMK A01 T01820147  RH  080%=      5-min Rain = 0
KPD4 260111Z 13009KT 18/15 A2991 RMK A01 T01820147  RH  080%=      5-min Rain = 0
KPD4 260112Z 13007KT 18/15 A2991 RMK A01 T01820147  RH  080%=      5-min Rain = 0
KPD4 260113Z 13005KT 18/15 A2991 RMK A01 T01820147  RH  080%=      5-min Rain = 0
KPD4 260114Z 13006KT 18/15 A2991 RMK A01 T01820148  RH  081%=      5-min Rain = 0
KPD4 260115Z 12006KT 18/15 A2991 RMK A01 T01820147  RH  080%=      5-min Rain = 0
KPD4 260116Z 12006KT 18/15 A2991 RMK A01 T01820147  RH  080%=      5-min Rain = 0
KPD4 260117Z 12006KT 18/15 A2991 RMK A01 T01820148  RH  080%=      5-min Rain = 0
KPD4 260118Z 12005KT 18/15 A2991 RMK A01 T01810148  RH  081%=      5-min Rain = 0
KPD4 260119Z 12005KT 18/15 A2991 RMK A01 T01810148  RH  081%=      5-min Rain = 0
KPD4 260120Z 11005KT 18/15 A2991 RMK A01 T01810148  RH  081%=      5-min Rain = 0
KPD4 260121Z 11005KT 18/15 A2991 RMK A01 T01800148  RH  081%=      5-min Rain = 0
KPD4 260122Z 10004KT 18/15 A2991 RMK A01 T01800148  RH  081%=      5-min Rain = 0
KPD4 260123Z 10003KT 18/15 A2991 RMK A01 T01800149  RH  082%=      5-min Rain = 0
KPD4 260124Z 10004KT 18/15 A2991 RMK A01 T01800149  RH  082%=      5-min Rain = 0
KPD4 260125Z 09005KT 18/15 A2991 RMK A01 T01790148  RH  082%=      5-min Rain = 0
KPD4 260126Z 08006KT 18/15 A2991 RMK A01 T01790147  RH  081%=      5-min Rain = 0
KPD4 260127Z 09007KT 18/15 A2991 RMK A01 T01790145  RH  081%=      5-min Rain = 0
KPD4 260128Z 10007KT 18/14 A2992 RMK A01 T01790144  RH  080%=      5-min Rain = 0
KPD4 260129Z 10006KT 18/14 A2992 RMK A01 T01780143  RH  080%=      5-min Rain = 0
KPD4 260130Z 10006KT 18/14 A2992 RMK A01 T01780143  RH  080%=      5-min Rain = 0
KPD4 260131Z 10006KT 18/14 A2992 RMK A01 T01780144  RH  080%=      5-min Rain = 0
KPD4 260132Z 10005KT 18/14 A2992 RMK A01 T01780144  RH  081%=      5-min Rain = 0
KPD4 260133Z 09005KT 18/15 A2992 RMK A01 T01770145  RH  081%=      5-min Rain = 0
KPD4 260134Z 09005KT 18/15 A2992 RMK A01 T01760146  RH  082%=      5-min Rain = 0
KPD4 260135Z 09006KT 18/15 A2992 RMK A01 T01750145  RH  082%=      5-min Rain = 0
KPD4 260136Z 09006KT 18/14 A2992 RMK A01 T01750144  RH  082%=      5-min Rain = 0
KPD4 260137Z 08006KT 18/14 A2993 RMK A01 T01760144  RH  082%=      5-min Rain = 0
KPD4 260138Z 08007KT 18/14 A2992 RMK A01 T01760144  RH  082%=      5-min Rain = 0
KPD4 260139Z 09008KT 18/15 A2992 RMK A01 T01760145  RH  082%=      5-min Rain = 0
KPD4 260140Z 08008KT 18/14 A2993 RMK A01 T01770144  RH  081%=      5-min Rain = 0
KPD4 260141Z 08006KT 18/14 A2993 RMK A01 T01770144  RH  081%=      5-min Rain = 0
KPD4 260142Z 07007KT 18/15 A2993 RMK A01 T01760146  RH  082%=      5-min Rain = 0
KPD4 260143Z 07007KT 18/15 A2993 RMK A01 T01760146  RH  083%=      5-min Rain = 0
KPD4 260144Z 07007KT 18/15 A2993 RMK A01 T01750146  RH  083%=      5-min Rain = 0
KPD4 260145Z 08008KT 18/15 A2993 RMK A01 T01750146  RH  083%=      5-min Rain = 0
KPD4 260146Z 09009KT 18/15 A2993 RMK A01 T01750146  RH  083%=      5-min Rain = 0
KPD4 260147Z 08008KT 18/15 A2993 RMK A01 T01750145  RH  083%=      5-min Rain = 0
KPD4 260148Z 08008KT 18/15 A2993 RMK A01 T01750146  RH  083%=      5-min Rain = 0
KPD4 260149Z 09007KT 17/15 A2993 RMK A01 T01740145  RH  083%=      5-min Rain = 0
KPD4 260150Z 09006KT 17/15 A2993 RMK A01 T01740145  RH  083%=      5-min Rain = 0
KPD4 260151Z 08006KT 17/15 A2993 RMK A01 T01730145  RH  084%=      5-min Rain = 0
KPD4 260152Z 08005KT 17/15 A2993 RMK A01 T01720145  RH  084%=      5-min Rain = 0
KPD4 260153Z 09005KT 17/15 A2993 RMK A01 T01720145  RH  084%=      5-min Rain = 0
KPD4 260154Z 09005KT 17/15 A2993 RMK A01 T01710145  RH  084%=      5-min Rain = 0
KPD4 260155Z 09005KT 17/15 A2993 RMK A01 T01710145  RH  084%=      5-min Rain = 0
KPD4 260156Z 08004KT 17/15 A2993 RMK A01 T01710145  RH  085%=      5-min Rain = 0
KPD4 260157Z 09003KT 17/15 A2993 RMK A01 T01710145  RH  085%=      5-min Rain = 0
KPD4 260158Z 10002KT 17/15 A2993 RMK A01 T01710146  RH  085%=      5-min Rain = 0
KPD4 260159Z 13001KT 17/15 A2993 RMK A01 T01710146  RH  085%=      5-min Rain = 0
KPD4 260200Z 10001KT 17/15 A2993 RMK A01 T01710145  RH  085%=      5-min Rain = 0
KPD4 260201Z 21000KT 17/15 A2993 RMK A01 T01710145  RH  085%=      5-min Rain = 0
KPD4 260202Z 18002KT 17/15 A2993 RMK A01 T01700145  RH  085%=      5-min Rain = 0
KPD4 260203Z 12003KT 17/15 A2993 RMK A01 T01690145  RH  085%=      5-min Rain = 0
KPD4 260204Z 11002KT 17/15 A2993 RMK A01 T01690145  RH  086%=      5-min Rain = 0
KPD4 260205Z 11003KT 17/15 A2993 RMK A01 T01690145  RH  086%=      5-min Rain = 0
KPD4 260206Z 12004KT 17/15 A2993 RMK A01 T01690146  RH  086%=      5-min Rain = 0
KPD4 260207Z 10004KT 17/15 A2993 RMK A01 T01690146  RH  087%=      5-min Rain = 0
KPD4 260208Z 11006KT 17/15 A2993 RMK A01 T01680146  RH  087%=      5-min Rain = 0
KPD4 260209Z 11006KT 17/15 A2993 RMK A01 T01680145  RH  087%=      5-min Rain = 0
KPD4 260210Z 13007KT 17/15 A2993 RMK A01 T01680145  RH  086%=      5-min Rain = 0
KPD4 260211Z 13007KT 17/15 A2993 RMK A01 T01690145  RH  086%=      5-min Rain = 0
KPD4 260212Z 13007KT 17/15 A2993 RMK A01 T01700145  RH  085%=      5-min Rain = 0
KPD4 260213Z 13007KT 17/15 A2993 RMK A01 T01700146  RH  085%=      5-min Rain = 0
KPD4 260214Z 14007KT 17/15 A2993 RMK A01 T01710146  RH  085%=      5-min Rain = 0
KPD4 260215Z 13006KT 17/15 A2993 RMK A01 T01700145  RH  085%=      5-min Rain = 0
KPD4 260216Z 14005KT 17/15 A2993 RMK A01 T01700145  RH  085%=      5-min Rain = 0
KPD4 260217Z 14004KT 17/14 A2993 RMK A01 T01700144  RH  085%=      5-min Rain = 0
KPD4 260218Z 15003KT 17/14 A2993 RMK A01 T01690143  RH  085%=      5-min Rain = 0
KPD4 260219Z 14004KT 17/14 A2992 RMK A01 T01690143  RH  084%=      5-min Rain = 0
KPD4 260220Z 15004KT 17/14 A2992 RMK A01 T01690142  RH  084%=      5-min Rain = 0
KPD4 260221Z 12006KT 17/14 A2992 RMK A01 T01690142  RH  084%=      5-min Rain = 0
KPD4 260222Z 13006KT 17/14 A2992 RMK A01 T01680142  RH  084%=      5-min Rain = 0
KPD4 260223Z 13006KT 17/14 A2992 RMK A01 T01690143  RH  085%=      5-min Rain = 0
KPD4 260224Z 12006KT 17/14 A2992 RMK A01 T01690144  RH  085%=      5-min Rain = 0
KPD4 260225Z 11006KT 17/14 A2992 RMK A01 T01680144  RH  086%=      5-min Rain = 0
KPD4 260226Z 11006KT 17/14 A2992 RMK A01 T01680144  RH  086%=      5-min Rain = 0
KPD4 260227Z 11006KT 17/14 A2992 RMK A01 T01680144  RH  086%=      5-min Rain = 0
KPD4 260228Z 11005KT 17/14 A2992 RMK A01 T01680144  RH  086%=      5-min Rain = 0
KPD4 260229Z 11005KT 17/14 A2992 RMK A01 T01670144  RH  086%=      5-min Rain = 0
KPD4 260230Z 11005KT 17/14 A2992 RMK A01 T01660143  RH  086%=      5-min Rain = 0
KPD4 260231Z 12004KT 17/14 A2992 RMK A01 T01660143  RH  086%=      5-min Rain = 0
KPD4 260232Z 10003KT 17/14 A2992 RMK A01 T01660143  RH  086%=      5-min Rain = 0
KPD4 260233Z 11003KT 17/14 A2992 RMK A01 T01660143  RH  086%=      5-min Rain = 0
KPD4 260234Z 10004KT 17/14 A2992 RMK A01 T01670143  RH  086%=      5-min Rain = 0
KPD4 260235Z 11004KT 17/14 A2992 RMK A01 T01660143  RH  086%=      5-min Rain = 0
KPD4 260236Z 12005KT 17/14 A2992 RMK A01 T01670142  RH  085%=      5-min Rain = 0
KPD4 260237Z 11003KT 17/14 A2992 RMK A01 T01670142  RH  085%=      5-min Rain = 0
KPD4 260238Z 10005KT 17/14 A2992 RMK A01 T01680143  RH  085%=      5-min Rain = 0
KPD4 260239Z 11004KT 17/14 A2992 RMK A01 T01680142  RH  085%=      5-min Rain = 0
KPD4 260240Z 11004KT 17/14 A2992 RMK A01 T01690142  RH  084%=      5-min Rain = 0
KPD4 260241Z 10003KT 17/14 A2992 RMK A01 T01690142  RH  084%=      5-min Rain = 0
KPD4 260242Z 09004KT 17/14 A2992 RMK A01 T01690142  RH  084%=      5-min Rain = 0
KPD4 260243Z 08004KT 17/14 A2992 RMK A01 T01680142  RH  085%=      5-min Rain = 0
KPD4 260244Z 06004KT 17/14 A2992 RMK A01 T01680142  RH  085%=      5-min Rain = 0
KPD4 260245Z 05003KT 17/14 A2993 RMK A01 T01680142  RH  085%=      5-min Rain = 0
KPD4 260246Z 03005KT 17/14 A2993 RMK A01 T01660141  RH  085%=      5-min Rain = 0
KPD4 260247Z 03006KT 17/14 A2993 RMK A01 T01660141  RH  085%=      5-min Rain = 0
KPD4 260248Z 03007KT 16/14 A2993 RMK A01 T01640141  RH  086%=      5-min Rain = 0
KPD4 260249Z 03008KT 16/14 A2993 RMK A01 T01630141  RH  087%=      5-min Rain = 0
KPD4 260250Z 02009KT 16/14 A2993 RMK A01 T01620142  RH  088%=      5-min Rain = 0
KPD4 260251Z 02010KT 16/14 A2993 RMK A01 T01610142  RH  089%=      5-min Rain = 0
KPD4 260252Z 03011KT 16/14 A2993 RMK A01 T01610143  RH  089%=      5-min Rain = 0
KPD4 260253Z 03010KT 16/14 A2993 RMK A01 T01610144  RH  090%=      5-min Rain = 0
KPD4 260254Z 04010KT 16/14 A2993 RMK A01 T01610144  RH  090%=      5-min Rain = 0
KPD4 260255Z 04010KT 16/14 A2993 RMK A01 T01620144  RH  089%=      5-min Rain = 0
KPD4 260256Z 05009KT 16/15 A2993 RMK A01 T01620145  RH  090%=      5-min Rain = 0
KPD4 260257Z 05008KT 16/15 A2993 RMK A01 T01620145  RH  090%=      5-min Rain = 0
KPD4 260258Z 05008KT 16/15 A2993 RMK A01 T01620146  RH  090%=      5-min Rain = 0
KPD4 260259Z 05008KT 16/15 A2993 RMK A01 T01620146  RH  090%=      5-min Rain = 0
KPD4 260300Z 05008KT 16/15 A2993 RMK A01 T01620146  RH  090%=      5-min Rain = 0
KPD4 260301Z 05007KT 16/15 A2993 RMK A01 T01630146  RH  090%=      5-min Rain = 0
KPD4 260302Z 05008KT 16/15 A2993 RMK A01 T01620146  RH  090%=      5-min Rain = 0
KPD4 260303Z 05008KT 16/15 A2993 RMK A01 T01620146  RH  090%=      5-min Rain = 0
KPD4 260304Z 05009KT 16/15 A2993 RMK A01 T01620146  RH  091%=      5-min Rain = 0
KPD4 260305Z 05009KT 16/15 A2993 RMK A01 T01610146  RH  091%=      5-min Rain = 0
KPD4 260306Z 04009KT 16/15 A2993 RMK A01 T01610146  RH  091%=      5-min Rain = 0
KPD4 260307Z 04010KT 16/15 A2993 RMK A01 T01610146  RH  091%=      5-min Rain = 0
KPD4 260308Z 04010KT 16/15 A2993 RMK A01 T01610146  RH  091%=      5-min Rain = 0
KPD4 260309Z 04011KT 16/15 A2993 RMK A01 T01610146  RH  091%=      5-min Rain = 0
KPD4 260310Z 04010KT 16/15 A2993 RMK A01 T01610146  RH  091%=      5-min Rain = 0
KPD4 260311Z 04010KT 16/15 A2994 RMK A01 T01610146  RH  091%=      5-min Rain = 0
KPD4 260312Z 04010KT 16/15 A2993 RMK A01 T01610145  RH  091%=      5-min Rain = 0
KPD4 260313Z 03011KT 16/15 A2993 RMK A01 T01600145  RH  091%=      5-min Rain = 0
KPD4 260314Z 04011KT 16/15 A2993 RMK A01 T01600145  RH  091%=      5-min Rain = 0
KPD4 260315Z 05010KT 16/15 A2994 RMK A01 T01600145  RH  091%=      5-min Rain = 0
KPD4 260316Z 05010KT 16/15 A2994 RMK A01 T01600145  RH  091%=      5-min Rain = 0
KPD4 260317Z 05009KT 16/15 A2994 RMK A01 T01600145  RH  091%=      5-min Rain = 0
KPD4 260318Z 05010KT 16/15 A2994 RMK A01 T01600145  RH  091%=      5-min Rain = 0
KPD4 260319Z 06009KT 16/15 A2994 RMK A01 T01600145  RH  091%=      5-min Rain = 0
KPD4 260320Z 06009KT 16/15 A2994 RMK A01 T01600145  RH  091%=      5-min Rain = 0
KPD4 260321Z 07009KT 16/15 A2994 RMK A01 T01600145  RH  091%=      5-min Rain = 0
KPD4 260322Z 07008KT 16/15 A2995 RMK A01 T01600145  RH  091%=      5-min Rain = 0
KPD4 260323Z 07008KT 16/14 A2995 RMK A01 T01600144  RH  091%=      5-min Rain = 0
KPD4 260324Z 07008KT 16/15 A2994 RMK A01 T01600145  RH  091%=      5-min Rain = 0
KPD4 260325Z 07008KT 16/15 A2994 RMK A01 T01600145  RH  091%=      5-min Rain = 0
KPD4 260326Z 07009KT 16/14 A2995 RMK A01 T01590144  RH  091%=      5-min Rain = 0
KPD4 260327Z 07007KT 16/15 A2995 RMK A01 T01590145  RH  091%=      5-min Rain = 0
KPD4 260328Z 07007KT 16/15 A2995 RMK A01 T01590145  RH  091%=      5-min Rain = 0
KPD4 260329Z 08006KT 16/14 A2995 RMK A01 T01590144  RH  091%=      5-min Rain = 0
KPD4 260330Z 08006KT 16/14 A2995 RMK A01 T01580144  RH  091%=      5-min Rain = 0
KPD4 260331Z 08006KT 16/14 A2995 RMK A01 T01570143  RH  092%=      5-min Rain = 0
KPD4 260332Z 08006KT 16/14 A2995 RMK A01 T01560144  RH  092%=      5-min Rain = 0
KPD4 260333Z 08006KT 16/14 A2995 RMK A01 T01560144  RH  092%=      5-min Rain = 0
KPD4 260334Z 08006KT 16/14 A2995 RMK A01 T01560144  RH  092%=      5-min Rain = 0
KPD4 260335Z 08005KT 16/14 A2995 RMK A01 T01570144  RH  092%=      5-min Rain = 0
KPD4 260336Z 09007KT 16/15 A2995 RMK A01 T01570145  RH  092%=      5-min Rain = 0
KPD4 260337Z 09005KT 16/15 A2996 RMK A01 T01570146  RH  093%=      5-min Rain = 0
KPD4 260338Z 08005KT 16/15 A2995 RMK A01 T01580146  RH  093%=      5-min Rain = 0
KPD4 260339Z 08003KT 16/15 A2996 RMK A01 T01590147  RH  092%=      5-min Rain = 0
KPD4 260340Z 09004KT 16/15 A2996 RMK A01 T01600146  RH  092%=      5-min Rain = 0
KPD4 260341Z 09003KT 16/15 A2996 RMK A01 T01600146  RH  091%=      5-min Rain = 0
KPD4 260342Z 09004KT 16/15 A2996 RMK A01 T01590145  RH  092%=      5-min Rain = 0
KPD4 260343Z 09006KT 16/15 A2996 RMK A01 T01590147  RH  093%=      5-min Rain = 0
KPD4 260344Z 09004KT 16/15 A2996 RMK A01 T01600148  RH  092%=      5-min Rain = 0
KPD4 260345Z 10005KT 16/15 A2996 RMK A01 T01600148  RH  092%=      5-min Rain = 0
KPD4 260346Z 09004KT 16/15 A2996 RMK A01 T01610147  RH  092%=      5-min Rain = 0
KPD4 260347Z 10006KT 16/15 A2996 RMK A01 T01600147  RH  092%=      5-min Rain = 0
KPD4 260348Z 09007KT 16/15 A2996 RMK A01 T01600147  RH  092%=      5-min Rain = 0
KPD4 260349Z 09007KT 16/15 A2996 RMK A01 T01600148  RH  093%=      5-min Rain = 0
KPD4 260350Z 10007KT 16/15 A2997 RMK A01 T01600149  RH  093%=      5-min Rain = 0
KPD4 260351Z 10008KT 16/15 A2997 RMK A01 T01600149  RH  093%=      5-min Rain = 0
KPD4 260352Z 10007KT 16/15 A2997 RMK A01 T01600150  RH  094%=      5-min Rain = 0
KPD4 260353Z 10009KT 16/15 A2997 RMK A01 T01600151  RH  094%=      5-min Rain = 0
KPD4 260354Z 10011KT 16/15 A2997 RMK A01 T01610151  RH  094%=      5-min Rain = 0
KPD4 260355Z 10011KT 16/15 A2997 RMK A01 T01610152  RH  094%=      5-min Rain = 0
KPD4 260356Z 10011KT 16/15 A2997 RMK A01 T01620152  RH  094%=      5-min Rain = 0
KPD4 260357Z 10012KT 16/15 A2997 RMK A01 T01620153  RH  094%=      5-min Rain = 0
KPD4 260358Z 10014KT 16/15 A2997 RMK A01 T01620153  RH  094%=      5-min Rain = 0
KPD4 260359Z 10014KT 16/15 A2997 RMK A01 T01630153  RH  094%=      5-min Rain = 0
KPD4 260400Z 10014KT 16/15 A2997 RMK A01 T01630153  RH  094%=      5-min Rain = 0
KPD4 260401Z 10014KT 16/15 A2997 RMK A01 T01630153  RH  094%=      5-min Rain = 0
KPD4 260402Z 10012KT 16/15 A2997 RMK A01 T01630154  RH  094%=      5-min Rain = 0
KPD4 260403Z 10012KT 16/15 A2997 RMK A01 T01630153  RH  094%=      5-min Rain = 0
KPD4 260404Z 11012KT 16/15 A2998 RMK A01 T01630153  RH  094%=      5-min Rain = 0
KPD4 260405Z 10010KT 16/15 A2998 RMK A01 T01630153  RH  094%=      5-min Rain = 0
KPD4 260406Z 10011KT 16/15 A2998 RMK A01 T01630153  RH  094%=      5-min Rain = 0
KPD4 260407Z 10011KT 16/15 A2998 RMK A01 T01630152  RH  093%=      5-min Rain = 0
KPD4 260408Z 10011KT 16/15 A2998 RMK A01 T01630152  RH  093%=      5-min Rain = 0
KPD4 260409Z 09010KT 16/15 A2998 RMK A01 T01630152  RH  093%=      5-min Rain = 0
KPD4 260410Z 09011KT 16/15 A2998 RMK A01 T01620152  RH  093%=      5-min Rain = 0
KPD4 260411Z 09012KT 16/15 A2998 RMK A01 T01620152  RH  093%=      5-min Rain = 0
KPD4 260412Z 09013KT 16/15 A2998 RMK A01 T01620152  RH  093%=      5-min Rain = 0
KPD4 260413Z 09009KT 16/15 A2998 RMK A01 T01620152  RH  093%=      5-min Rain = 0
KPD4 260414Z 09011KT 16/15 A2998 RMK A01 T01620152  RH  094%=      5-min Rain = 0
KPD4 260415Z 08010KT 16/15 A2998 RMK A01 T01620152  RH  094%=      5-min Rain = 0
KPD4 260416Z 09008KT 16/15 A2998 RMK A01 T01620152  RH  094%=      5-min Rain = 0
KPD4 260417Z 09009KT 16/15 A2998 RMK A01 T01620152  RH  094%=      5-min Rain = 0
KPD4 260418Z 09012KT 16/15 A2998 RMK A01 T01620152  RH  094%=      5-min Rain = 0
KPD4 260419Z 09011KT 16/15 A2998 RMK A01 T01610152  RH  094%=      5-min Rain = 0
KPD4 260420Z 09010KT 16/15 A2998 RMK A01 T01620153  RH  094%=      5-min Rain = 0
KPD4 260421Z 10010KT 16/15 A2998 RMK A01 T01620153  RH  094%=      5-min Rain = 0
KPD4 260422Z 10011KT 16/15 A2998 RMK A01 T01620153  RH  094%=      5-min Rain = 0
KPD4 260423Z 10011KT 16/15 A2998 RMK A01 T01620153  RH  094%=      5-min Rain = 0
KPD4 260424Z 09013KT 16/15 A2998 RMK A01 T01620153  RH  094%=      5-min Rain = 0
KPD4 260425Z 10013KT 16/15 A2998 RMK A01 T01620152  RH  094%=      5-min Rain = 0
KPD4 260426Z 09013KT 16/15 A2998 RMK A01 T01620152  RH  094%=      5-min Rain = 0
KPD4 260427Z 10011KT 16/15 A2998 RMK A01 T01620152  RH  093%=      5-min Rain = 0
KPD4 260428Z 10012KT 16/15 A2998 RMK A01 T01620152  RH  094%=      5-min Rain = 0
KPD4 260429Z 10010KT 16/15 A2998 RMK A01 T01630152  RH  093%=      5-min Rain = 0
KPD4 260430Z 10010KT 16/15 A2998 RMK A01 T01620152  RH  094%=      5-min Rain = 0
KPD4 260431Z 10013KT 16/15 A2998 RMK A01 T01620152  RH  094%=      5-min Rain = 0
KPD4 260432Z 10014KT 16/15 A2998 RMK A01 T01620152  RH  094%=      5-min Rain = 0
KPD4 260433Z 10012KT 16/15 A2998 RMK A01 T01620152  RH  094%=      5-min Rain = 0
KPD4 260434Z 10012KT 16/15 A2998 RMK A01 T01620152  RH  094%=      5-min Rain = 0
KPD4 260435Z 10010KT 16/15 A2998 RMK A01 T01620152  RH  094%=      5-min Rain = 0
KPD4 260436Z 10010KT 16/15 A2998 RMK A01 T01620152  RH  094%=      5-min Rain = 0
KPD4 260437Z 10012KT 16/15 A2998 RMK A01 T01610151  RH  094%=      5-min Rain = 0
KPD4 260438Z 10011KT 16/15 A2998 RMK A01 T01610151  RH  094%=      5-min Rain = 0
KPD4 260439Z 10009KT 16/15 A2998 RMK A01 T01610151  RH  094%=      5-min Rain = 0
KPD4 260440Z 10008KT 16/15 A2998 RMK A01 T01620151  RH  094%=      5-min Rain = 0
KPD4 260441Z 10009KT 16/15 A2998 RMK A01 T01610152  RH  094%=      5-min Rain = 0
KPD4 260442Z 10010KT 16/15 A2998 RMK A01 T01610151  RH  094%=      5-min Rain = 0
KPD4 260443Z 10010KT 16/15 A2998 RMK A01 T01610151  RH  094%=      5-min Rain = 0
KPD4 260444Z 10010KT 16/15 A2998 RMK A01 T01610151  RH  093%=      5-min Rain = 0
KPD4 260445Z 10008KT 16/15 A2998 RMK A01 T01610151  RH  093%=      5-min Rain = 0
KPD4 260446Z 10008KT 16/15 A2998 RMK A01 T01610151  RH  094%=      5-min Rain = 0
KPD4 260447Z 10007KT 16/15 A2998 RMK A01 T01610151  RH  094%=      5-min Rain = 0
KPD4 260448Z 10008KT 16/15 A2998 RMK A01 T01610151  RH  094%=      5-min Rain = 0
KPD4 260449Z 10007KT 16/15 A2998 RMK A01 T01610151  RH  094%=      5-min Rain = 0
KPD4 260450Z 09007KT 16/15 A2998 RMK A01 T01600150  RH  094%=      5-min Rain = 0
KPD4 260451Z 09007KT 16/15 A2998 RMK A01 T01600150  RH  094%=      5-min Rain = 0
KPD4 260452Z 09007KT 16/15 A2998 RMK A01 T01600150  RH  094%=      5-min Rain = 0
KPD4 260453Z 08007KT 16/15 A2998 RMK A01 T01600150  RH  094%=      5-min Rain = 0
KPD4 260454Z 07007KT 16/15 A2997 RMK A01 T01600150  RH  094%=      5-min Rain = 0
KPD4 260455Z 09006KT 16/15 A2997 RMK A01 T01600150  RH  094%=      5-min Rain = 0
KPD4 260456Z 09008KT 16/15 A2997 RMK A01 T01600149  RH  093%=      5-min Rain = 0
KPD4 260457Z 10008KT 16/15 A2997 RMK A01 T01600150  RH  093%=      5-min Rain = 0
KPD4 260458Z 10007KT 16/15 A2997 RMK A01 T01610150  RH  093%=      5-min Rain = 0
KPD4 260459Z 10008KT 16/15 A2998 RMK A01 T01610150  RH  093%=      5-min Rain = 0

Page generated in 0.1215 seconds.